<?xml version='1.0' encoding='UTF-8'?><gpx version="1.1" creator="JPX - https://github.com/jenetics/jpx" xmlns="http://www.topografix.com/GPX/1/1"><trk><trkseg><trkpt lat="43.9111349" lon="12.917549"><ele>2.0</ele><time>2026-04-08T16:47:06.288Z</time></trkpt><trkpt lat="43.9112131" lon="12.9175382"><ele>1.9999999999999998</ele><time>2026-04-08T16:47:10.291Z</time></trkpt><trkpt lat="43.9112833" lon="12.9175503"><ele>2.0</ele><time>2026-04-08T16:47:14.292Z</time></trkpt><trkpt lat="43.9113328" lon="12.9176098"><ele>2.0</ele><time>2026-04-08T16:47:18.293Z</time></trkpt><trkpt lat="43.9113957" lon="12.9176562"><ele>1.9999999999999998</ele><time>2026-04-08T16:47:21.302Z</time></trkpt><trkpt lat="43.9114541" lon="12.9177225"><ele>2.0</ele><time>2026-04-08T16:47:24.312Z</time></trkpt><trkpt lat="43.9115046" lon="12.9177915"><ele>2.0</ele><time>2026-04-08T16:47:27.304Z</time></trkpt><trkpt lat="43.9115502" lon="12.9178683"><ele>2.2857142857142856</ele><time>2026-04-08T16:47:30.31Z</time></trkpt><trkpt lat="43.9116023" lon="12.9179331"><ele>2.571428571428571</ele><time>2026-04-08T16:47:33.311Z</time></trkpt><trkpt lat="43.9116559" lon="12.9180239"><ele>2.8571428571428568</ele><time>2026-04-08T16:47:37.296Z</time></trkpt><trkpt lat="43.9117014" lon="12.9180844"><ele>3.142857142857143</ele><time>2026-04-08T16:47:40.295Z</time></trkpt><trkpt lat="43.9117556" lon="12.9181389"><ele>3.428571428571428</ele><time>2026-04-08T16:47:43.286Z</time></trkpt><trkpt lat="43.9118112" lon="12.918203"><ele>3.714285714285714</ele><time>2026-04-08T16:47:47.292Z</time></trkpt><trkpt lat="43.9118531" lon="12.9182726"><ele>4.0</ele><time>2026-04-08T16:47:50.199Z</time></trkpt><trkpt lat="43.9118797" lon="12.918357"><ele>4.428571428571429</ele><time>2026-04-08T16:47:53.197Z</time></trkpt><trkpt lat="43.9119488" lon="12.9184364"><ele>4.857142857142857</ele><time>2026-04-08T16:47:56.998Z</time></trkpt><trkpt lat="43.9120009" lon="12.9185001"><ele>5.285714285714286</ele><time>2026-04-08T16:47:59.997Z</time></trkpt><trkpt lat="43.9120386" lon="12.9185949"><ele>5.714285714285714</ele><time>2026-04-08T16:48:03Z</time></trkpt><trkpt lat="43.9120788" lon="12.9186817"><ele>6.142857142857142</ele><time>2026-04-08T16:48:06.001Z</time></trkpt><trkpt lat="43.9121248" lon="12.9187482"><ele>6.571428571428571</ele><time>2026-04-08T16:48:09Z</time></trkpt><trkpt lat="43.9121823" lon="12.918804"><ele>7.0</ele><time>2026-04-08T16:48:11.998Z</time></trkpt><trkpt lat="43.9122397" lon="12.9188573"><ele>7.0</ele><time>2026-04-08T16:48:15.003Z</time></trkpt><trkpt lat="43.9122855" lon="12.9189335"><ele>7.0</ele><time>2026-04-08T16:48:17.999Z</time></trkpt><trkpt lat="43.9123359" lon="12.9190036"><ele>7.0</ele><time>2026-04-08T16:48:21.005Z</time></trkpt><trkpt lat="43.9123918" lon="12.919072"><ele>7.0</ele><time>2026-04-08T16:48:23.993Z</time></trkpt><trkpt lat="43.9124407" lon="12.9191542"><ele>7.0</ele><time>2026-04-08T16:48:27.007Z</time></trkpt><trkpt lat="43.9124874" lon="12.9192332"><ele>7.0</ele><time>2026-04-08T16:48:29.998Z</time></trkpt><trkpt lat="43.912528" lon="12.9193125"><ele>7.0</ele><time>2026-04-08T16:48:33Z</time></trkpt><trkpt lat="43.9125795" lon="12.9194043"><ele>6.714285714285714</ele><time>2026-04-08T16:48:37.008Z</time></trkpt><trkpt lat="43.9126278" lon="12.9194696"><ele>6.428571428571429</ele><time>2026-04-08T16:48:40.01Z</time></trkpt><trkpt lat="43.912666" lon="12.9195494"><ele>6.142857142857142</ele><time>2026-04-08T16:48:42.999Z</time></trkpt><trkpt lat="43.9126521" lon="12.9196443"><ele>5.857142857142858</ele><time>2026-04-08T16:48:47.003Z</time></trkpt><trkpt lat="43.9126109" lon="12.9197328"><ele>5.571428571428571</ele><time>2026-04-08T16:48:50.998Z</time></trkpt><trkpt lat="43.9125651" lon="12.9198021"><ele>5.285714285714286</ele><time>2026-04-08T16:48:54.007Z</time></trkpt><trkpt lat="43.9125051" lon="12.9198566"><ele>5.0</ele><time>2026-04-08T16:48:57Z</time></trkpt><trkpt lat="43.9124437" lon="12.9199181"><ele>5.0</ele><time>2026-04-08T16:49:00.012Z</time></trkpt><trkpt lat="43.9123912" lon="12.9199824"><ele>5.0</ele><time>2026-04-08T16:49:03.01Z</time></trkpt><trkpt lat="43.9123401" lon="12.9200352"><ele>5.0</ele><time>2026-04-08T16:49:06.012Z</time></trkpt><trkpt lat="43.9122806" lon="12.9200921"><ele>5.0</ele><time>2026-04-08T16:49:09.01Z</time></trkpt><trkpt lat="43.912226" lon="12.9201691"><ele>5.0</ele><time>2026-04-08T16:49:12.006Z</time></trkpt><trkpt lat="43.9121661" lon="12.9202138"><ele>5.0</ele><time>2026-04-08T16:49:15.008Z</time></trkpt><trkpt lat="43.9120987" lon="12.9202841"><ele>5.0</ele><time>2026-04-08T16:49:18.003Z</time></trkpt><trkpt lat="43.9120344" lon="12.9203657"><ele>4.571428571428571</ele><time>2026-04-08T16:49:22.007Z</time></trkpt><trkpt lat="43.9119873" lon="12.9204449"><ele>4.142857142857143</ele><time>2026-04-08T16:49:26.006Z</time></trkpt><trkpt lat="43.9119333" lon="12.9205157"><ele>3.7142857142857144</ele><time>2026-04-08T16:49:29.012Z</time></trkpt><trkpt lat="43.9118841" lon="12.920586"><ele>3.2857142857142856</ele><time>2026-04-08T16:49:31.995Z</time></trkpt><trkpt lat="43.9118463" lon="12.9206586"><ele>2.8571428571428568</ele><time>2026-04-08T16:49:35Z</time></trkpt><trkpt lat="43.9118064" lon="12.9207581"><ele>2.4285714285714284</ele><time>2026-04-08T16:49:38.053Z</time></trkpt><trkpt lat="43.9117724" lon="12.9208391"><ele>2.0</ele><time>2026-04-08T16:49:41.001Z</time></trkpt><trkpt lat="43.911728" lon="12.9209019"><ele>2.0</ele><time>2026-04-08T16:49:44.004Z</time></trkpt><trkpt lat="43.9116692" lon="12.9209497"><ele>1.9999999999999998</ele><time>2026-04-08T16:49:47.011Z</time></trkpt><trkpt lat="43.9116167" lon="12.9210044"><ele>2.0</ele><time>2026-04-08T16:49:50.009Z</time></trkpt><trkpt lat="43.9115588" lon="12.9210726"><ele>2.0</ele><time>2026-04-08T16:49:54.007Z</time></trkpt><trkpt lat="43.9115326" lon="12.9211533"><ele>1.9999999999999998</ele><time>2026-04-08T16:49:57.008Z</time></trkpt><trkpt lat="43.9114897" lon="12.921238"><ele>2.0</ele><time>2026-04-08T16:50:01.007Z</time></trkpt><trkpt lat="43.9114322" lon="12.9213122"><ele>2.0</ele><time>2026-04-08T16:50:04.987Z</time></trkpt><trkpt lat="43.9113772" lon="12.9213743"><ele>2.0</ele><time>2026-04-08T16:50:08.001Z</time></trkpt><trkpt lat="43.9113333" lon="12.9214495"><ele>1.9999999999999998</ele><time>2026-04-08T16:50:10.994Z</time></trkpt><trkpt lat="43.911276" lon="12.9214981"><ele>2.0</ele><time>2026-04-08T16:50:13.99Z</time></trkpt><trkpt lat="43.9112222" lon="12.9215613"><ele>2.0</ele><time>2026-04-08T16:50:16.998Z</time></trkpt><trkpt lat="43.9111662" lon="12.9216358"><ele>1.9999999999999998</ele><time>2026-04-08T16:50:19.993Z</time></trkpt><trkpt lat="43.9111107" lon="12.9217118"><ele>2.0</ele><time>2026-04-08T16:50:23.995Z</time></trkpt><trkpt lat="43.9110736" lon="12.9217835"><ele>2.0</ele><time>2026-04-08T16:50:26.986Z</time></trkpt><trkpt lat="43.9110273" lon="12.9218573"><ele>1.6666666666666665</ele><time>2026-04-08T16:50:29.986Z</time></trkpt><trkpt lat="43.9109678" lon="12.9219348"><ele>1.3333333333333333</ele><time>2026-04-08T16:50:33.959Z</time></trkpt><trkpt lat="43.9109068" lon="12.9219962"><ele>1.0</ele><time>2026-04-08T16:50:36.871Z</time></trkpt><trkpt lat="43.9108469" lon="12.9220751"><ele>0.6666666666666666</ele><time>2026-04-08T16:50:40.778Z</time></trkpt><trkpt lat="43.9108111" lon="12.9221484"><ele>0.3333333333333333</ele><time>2026-04-08T16:50:43.58Z</time></trkpt><trkpt lat="43.9107653" lon="12.9222486"><ele>0.0</ele><time>2026-04-08T16:50:47.393Z</time></trkpt><trkpt lat="43.9107293" lon="12.9223299"><ele>0.42857142857142855</ele><time>2026-04-08T16:50:50.196Z</time></trkpt><trkpt lat="43.91067" lon="12.9223962"><ele>0.8571428571428571</ele><time>2026-04-08T16:50:53.994Z</time></trkpt><trkpt lat="43.9106049" lon="12.9224593"><ele>1.2857142857142856</ele><time>2026-04-08T16:50:57.994Z</time></trkpt><trkpt lat="43.910549" lon="12.9225365"><ele>1.7142857142857142</ele><time>2026-04-08T16:51:01.007Z</time></trkpt><trkpt lat="43.910502" lon="12.9225959"><ele>2.142857142857143</ele><time>2026-04-08T16:51:03.007Z</time></trkpt><trkpt lat="43.9104384" lon="12.9226617"><ele>2.571428571428571</ele><time>2026-04-08T16:51:07.01Z</time></trkpt><trkpt lat="43.9103953" lon="12.922728"><ele>3.0</ele><time>2026-04-08T16:51:10.032Z</time></trkpt><trkpt lat="43.9103337" lon="12.9228024"><ele>2.9999999999999996</ele><time>2026-04-08T16:51:14.007Z</time></trkpt><trkpt lat="43.9102805" lon="12.9228768"><ele>3.0</ele><time>2026-04-08T16:51:17.02Z</time></trkpt><trkpt lat="43.9102281" lon="12.9229381"><ele>3.0</ele><time>2026-04-08T16:51:20.011Z</time></trkpt><trkpt lat="43.9101726" lon="12.9230046"><ele>3.0</ele><time>2026-04-08T16:51:23.007Z</time></trkpt><trkpt lat="43.9101301" lon="12.9230725"><ele>3.0</ele><time>2026-04-08T16:51:26.014Z</time></trkpt><trkpt lat="43.9100734" lon="12.9231489"><ele>2.9999999999999996</ele><time>2026-04-08T16:51:31.004Z</time></trkpt><trkpt lat="43.9100186" lon="12.9232253"><ele>3.0</ele><time>2026-04-08T16:51:35.98Z</time></trkpt><trkpt lat="43.909956" lon="12.923308"><ele>3.1666666666666665</ele><time>2026-04-08T16:51:38.995Z</time></trkpt><trkpt lat="43.9098971" lon="12.9233838"><ele>3.333333333333333</ele><time>2026-04-08T16:51:42.001Z</time></trkpt><trkpt lat="43.9098502" lon="12.923476"><ele>3.5</ele><time>2026-04-08T16:51:46.006Z</time></trkpt><trkpt lat="43.909801" lon="12.9235705"><ele>3.6666666666666665</ele><time>2026-04-08T16:51:50.01Z</time></trkpt><trkpt lat="43.909752" lon="12.9236639"><ele>3.833333333333333</ele><time>2026-04-08T16:51:54.004Z</time></trkpt><trkpt lat="43.9097138" lon="12.923749"><ele>4.0</ele><time>2026-04-08T16:51:57.003Z</time></trkpt><trkpt lat="43.9096537" lon="12.9238118"><ele>3.571428571428571</ele><time>2026-04-08T16:52:00.008Z</time></trkpt><trkpt lat="43.9096006" lon="12.9238693"><ele>3.1428571428571423</ele><time>2026-04-08T16:52:03.011Z</time></trkpt><trkpt lat="43.9095464" lon="12.9239274"><ele>2.714285714285714</ele><time>2026-04-08T16:52:06.001Z</time></trkpt><trkpt lat="43.9094944" lon="12.9240067"><ele>2.2857142857142856</ele><time>2026-04-08T16:52:09.005Z</time></trkpt><trkpt lat="43.9094324" lon="12.9240788"><ele>1.857142857142857</ele><time>2026-04-08T16:52:11.992Z</time></trkpt><trkpt lat="43.909371" lon="12.9241523"><ele>1.4285714285714284</ele><time>2026-04-08T16:52:15.008Z</time></trkpt><trkpt lat="43.9093184" lon="12.9242143"><ele>1.0</ele><time>2026-04-08T16:52:18Z</time></trkpt><trkpt lat="43.9092713" lon="12.9242817"><ele>2.2857142857142856</ele><time>2026-04-08T16:52:20.998Z</time></trkpt><trkpt lat="43.9092211" lon="12.9243473"><ele>3.571428571428571</ele><time>2026-04-08T16:52:23.989Z</time></trkpt><trkpt lat="43.9091767" lon="12.9244253"><ele>4.857142857142857</ele><time>2026-04-08T16:52:26.996Z</time></trkpt><trkpt lat="43.9091382" lon="12.924502"><ele>6.142857142857143</ele><time>2026-04-08T16:52:29.992Z</time></trkpt><trkpt lat="43.9090909" lon="12.9245651"><ele>7.428571428571429</ele><time>2026-04-08T16:52:33.002Z</time></trkpt><trkpt lat="43.9090472" lon="12.9246585"><ele>8.714285714285714</ele><time>2026-04-08T16:52:36.009Z</time></trkpt><trkpt lat="43.9090001" lon="12.9247351"><ele>10.0</ele><time>2026-04-08T16:52:39.014Z</time></trkpt><trkpt lat="43.9089528" lon="12.9248054"><ele>10.0</ele><time>2026-04-08T16:52:42.029Z</time></trkpt><trkpt lat="43.9088886" lon="12.9248861"><ele>10.0</ele><time>2026-04-08T16:52:46.015Z</time></trkpt><trkpt lat="43.9088377" lon="12.9249513"><ele>10.0</ele><time>2026-04-08T16:52:49.013Z</time></trkpt><trkpt lat="43.9087832" lon="12.9250358"><ele>10.0</ele><time>2026-04-08T16:52:52.009Z</time></trkpt><trkpt lat="43.9087457" lon="12.9251067"><ele>10.0</ele><time>2026-04-08T16:52:55.002Z</time></trkpt><trkpt lat="43.9086763" lon="12.9251735"><ele>10.0</ele><time>2026-04-08T16:52:59.003Z</time></trkpt><trkpt lat="43.9086133" lon="12.9252195"><ele>9.0</ele><time>2026-04-08T16:53:02.008Z</time></trkpt><trkpt lat="43.9085558" lon="12.9252729"><ele>8.0</ele><time>2026-04-08T16:53:05.002Z</time></trkpt><trkpt lat="43.9085111" lon="12.9253446"><ele>7.0</ele><time>2026-04-08T16:53:08.002Z</time></trkpt><trkpt lat="43.9084657" lon="12.9254303"><ele>6.0</ele><time>2026-04-08T16:53:11.015Z</time></trkpt><trkpt lat="43.9084133" lon="12.9254904"><ele>5.0</ele><time>2026-04-08T16:53:14.011Z</time></trkpt><trkpt lat="43.9083585" lon="12.9255585"><ele>4.0</ele><time>2026-04-08T16:53:17.003Z</time></trkpt><trkpt lat="43.908305" lon="12.9256355"><ele>3.0</ele><time>2026-04-08T16:53:20.004Z</time></trkpt><trkpt lat="43.9082563" lon="12.9257069"><ele>3.0</ele><time>2026-04-08T16:53:22.99Z</time></trkpt><trkpt lat="43.9081907" lon="12.9257474"><ele>3.0</ele><time>2026-04-08T16:53:26.004Z</time></trkpt><trkpt lat="43.9081259" lon="12.925815"><ele>3.0</ele><time>2026-04-08T16:53:29.996Z</time></trkpt><trkpt lat="43.9080862" lon="12.9259007"><ele>3.0</ele><time>2026-04-08T16:53:32.989Z</time></trkpt><trkpt lat="43.9080497" lon="12.9259977"><ele>3.0</ele><time>2026-04-08T16:53:35.999Z</time></trkpt><trkpt lat="43.908" lon="12.9260862"><ele>3.0</ele><time>2026-04-08T16:53:38.996Z</time></trkpt><trkpt lat="43.9079367" lon="12.9261343"><ele>2.8571428571428568</ele><time>2026-04-08T16:53:41.998Z</time></trkpt><trkpt lat="43.9078809" lon="12.9261777"><ele>2.7142857142857144</ele><time>2026-04-08T16:53:43.99Z</time></trkpt><trkpt lat="43.9078262" lon="12.9262493"><ele>2.571428571428571</ele><time>2026-04-08T16:53:47Z</time></trkpt><trkpt lat="43.9077712" lon="12.9263306"><ele>2.4285714285714284</ele><time>2026-04-08T16:53:49.997Z</time></trkpt><trkpt lat="43.9077083" lon="12.9264242"><ele>2.2857142857142856</ele><time>2026-04-08T16:53:53Z</time></trkpt><trkpt lat="43.9076607" lon="12.9264822"><ele>2.142857142857143</ele><time>2026-04-08T16:53:54.999Z</time></trkpt><trkpt lat="43.9076147" lon="12.9265465"><ele>2.0</ele><time>2026-04-08T16:53:57.001Z</time></trkpt><trkpt lat="43.9075577" lon="12.9266068"><ele>1.9999999999999998</ele><time>2026-04-08T16:54:00Z</time></trkpt><trkpt lat="43.9075046" lon="12.9266893"><ele>2.0</ele><time>2026-04-08T16:54:03.997Z</time></trkpt><trkpt lat="43.907463" lon="12.9267719"><ele>2.0</ele><time>2026-04-08T16:54:06.994Z</time></trkpt><trkpt lat="43.9074238" lon="12.9268612"><ele>2.0</ele><time>2026-04-08T16:54:09.997Z</time></trkpt><trkpt lat="43.907382" lon="12.9269381"><ele>1.9999999999999998</ele><time>2026-04-08T16:54:12.992Z</time></trkpt><trkpt lat="43.9073361" lon="12.927023"><ele>2.0</ele><time>2026-04-08T16:54:16Z</time></trkpt><trkpt lat="43.9072754" lon="12.9270931"><ele>2.833333333333333</ele><time>2026-04-08T16:54:19.009Z</time></trkpt><trkpt lat="43.9072293" lon="12.9271871"><ele>3.666666666666667</ele><time>2026-04-08T16:54:22.003Z</time></trkpt><trkpt lat="43.9071794" lon="12.9272454"><ele>4.5</ele><time>2026-04-08T16:54:25Z</time></trkpt><trkpt lat="43.9071132" lon="12.9273197"><ele>5.333333333333334</ele><time>2026-04-08T16:54:28.004Z</time></trkpt><trkpt lat="43.9070478" lon="12.927371"><ele>6.166666666666667</ele><time>2026-04-08T16:54:31.001Z</time></trkpt><trkpt lat="43.9069664" lon="12.9274123"><ele>7.0</ele><time>2026-04-08T16:54:35.012Z</time></trkpt><trkpt lat="43.9068987" lon="12.9274698"><ele>7.0</ele><time>2026-04-08T16:54:38.017Z</time></trkpt><trkpt lat="43.9068474" lon="12.9275417"><ele>7.0</ele><time>2026-04-08T16:54:41.027Z</time></trkpt><trkpt lat="43.9068125" lon="12.9276256"><ele>7.0</ele><time>2026-04-08T16:54:44.011Z</time></trkpt><trkpt lat="43.9067823" lon="12.9277215"><ele>7.0</ele><time>2026-04-08T16:54:47.01Z</time></trkpt><trkpt lat="43.9067355" lon="12.927797"><ele>7.0</ele><time>2026-04-08T16:54:50.02Z</time></trkpt><trkpt lat="43.9066901" lon="12.9278888"><ele>7.0</ele><time>2026-04-08T16:54:53.019Z</time></trkpt><trkpt lat="43.9066475" lon="12.9279606"><ele>7.0</ele><time>2026-04-08T16:54:56.018Z</time></trkpt><trkpt lat="43.9066055" lon="12.9280503"><ele>6.142857142857143</ele><time>2026-04-08T16:54:59.021Z</time></trkpt><trkpt lat="43.9065696" lon="12.9281477"><ele>5.285714285714286</ele><time>2026-04-08T16:55:02.018Z</time></trkpt><trkpt lat="43.906554" lon="12.9282412"><ele>4.428571428571429</ele><time>2026-04-08T16:55:05.02Z</time></trkpt><trkpt lat="43.9065605" lon="12.9283427"><ele>3.571428571428571</ele><time>2026-04-08T16:55:08.008Z</time></trkpt><trkpt lat="43.9065381" lon="12.9284371"><ele>2.7142857142857144</ele><time>2026-04-08T16:55:11.031Z</time></trkpt><trkpt lat="43.906474" lon="12.9284631"><ele>1.8571428571428572</ele><time>2026-04-08T16:55:14.016Z</time></trkpt><trkpt lat="43.9063995" lon="12.9284143"><ele>1.0</ele><time>2026-04-08T16:55:17.011Z</time></trkpt><trkpt lat="43.9063409" lon="12.9283333"><ele>0.9999999999999999</ele><time>2026-04-08T16:55:20.01Z</time></trkpt><trkpt lat="43.9063844" lon="12.9284211"><ele>1.0</ele><time>2026-04-08T16:55:24.015Z</time></trkpt><trkpt lat="43.9064539" lon="12.9284564"><ele>1.0</ele><time>2026-04-08T16:55:26.011Z</time></trkpt><trkpt lat="43.9065351" lon="12.9284423"><ele>1.0</ele><time>2026-04-08T16:55:29.014Z</time></trkpt><trkpt lat="43.9065901" lon="12.9283404"><ele>0.9999999999999999</ele><time>2026-04-08T16:55:32.003Z</time></trkpt><trkpt lat="43.9066118" lon="12.928258"><ele>1.0</ele><time>2026-04-08T16:55:34Z</time></trkpt><trkpt lat="43.9066062" lon="12.9281461"><ele>0.9999999999999999</ele><time>2026-04-08T16:55:37Z</time></trkpt><trkpt lat="43.9065792" lon="12.9280404"><ele>1.0</ele><time>2026-04-08T16:55:40.01Z</time></trkpt><trkpt lat="43.9066078" lon="12.9279398"><ele>1.0</ele><time>2026-04-08T16:55:43.012Z</time></trkpt><trkpt lat="43.9066402" lon="12.9278502"><ele>1.0</ele><time>2026-04-08T16:55:46.005Z</time></trkpt><trkpt lat="43.9066899" lon="12.9277623"><ele>0.9999999999999999</ele><time>2026-04-08T16:55:49Z</time></trkpt><trkpt lat="43.9067476" lon="12.9277026"><ele>1.0</ele><time>2026-04-08T16:55:51.996Z</time></trkpt><trkpt lat="43.9068024" lon="12.927629"><ele>0.9999999999999999</ele><time>2026-04-08T16:55:53.992Z</time></trkpt><trkpt lat="43.9068611" lon="12.9275673"><ele>1.0</ele><time>2026-04-08T16:55:56.996Z</time></trkpt><trkpt lat="43.9069153" lon="12.9275223"><ele>1.0</ele><time>2026-04-08T16:55:58.999Z</time></trkpt><trkpt lat="43.9069768" lon="12.9274561"><ele>1.0</ele><time>2026-04-08T16:56:02.006Z</time></trkpt><trkpt lat="43.9070363" lon="12.9273768"><ele>0.9999999999999999</ele><time>2026-04-08T16:56:05.011Z</time></trkpt><trkpt lat="43.9070839" lon="12.9273051"><ele>1.0</ele><time>2026-04-08T16:56:08.003Z</time></trkpt><trkpt lat="43.9071501" lon="12.9272258"><ele>2.0</ele><time>2026-04-08T16:56:11.011Z</time></trkpt><trkpt lat="43.9072077" lon="12.9271429"><ele>3.0</ele><time>2026-04-08T16:56:13.999Z</time></trkpt><trkpt lat="43.907254" lon="12.9270642"><ele>4.0</ele><time>2026-04-08T16:56:17.012Z</time></trkpt><trkpt lat="43.9073061" lon="12.9270081"><ele>5.0</ele><time>2026-04-08T16:56:20.014Z</time></trkpt><trkpt lat="43.9073599" lon="12.926932"><ele>6.000000000000001</ele><time>2026-04-08T16:56:22.996Z</time></trkpt><trkpt lat="43.9074001" lon="12.9268625"><ele>7.0</ele><time>2026-04-08T16:56:24.997Z</time></trkpt><trkpt lat="43.907489" lon="12.9268114"><ele>7.0</ele><time>2026-04-08T16:56:27.985Z</time></trkpt><trkpt lat="43.9075408" lon="12.9267425"><ele>7.0</ele><time>2026-04-08T16:56:29.993Z</time></trkpt><trkpt lat="43.9075907" lon="12.9266879"><ele>7.0</ele><time>2026-04-08T16:56:32.995Z</time></trkpt><trkpt lat="43.9076287" lon="12.9266151"><ele>7.0</ele><time>2026-04-08T16:56:36.995Z</time></trkpt><trkpt lat="43.9076799" lon="12.9265325"><ele>7.0</ele><time>2026-04-08T16:56:39.999Z</time></trkpt><trkpt lat="43.9077113" lon="12.9264567"><ele>7.0</ele><time>2026-04-08T16:56:42.004Z</time></trkpt><trkpt lat="43.9077484" lon="12.9263826"><ele>7.0</ele><time>2026-04-08T16:56:45.008Z</time></trkpt><trkpt lat="43.9077992" lon="12.9262859"><ele>6.333333333333334</ele><time>2026-04-08T16:56:49.008Z</time></trkpt><trkpt lat="43.9078649" lon="12.9262123"><ele>5.666666666666667</ele><time>2026-04-08T16:56:51.998Z</time></trkpt><trkpt lat="43.9079191" lon="12.9261373"><ele>5.0</ele><time>2026-04-08T16:56:54.993Z</time></trkpt><trkpt lat="43.9079707" lon="12.9260548"><ele>4.333333333333334</ele><time>2026-04-08T16:56:58.002Z</time></trkpt><trkpt lat="43.9080268" lon="12.9259693"><ele>3.666666666666667</ele><time>2026-04-08T16:57:00.992Z</time></trkpt><trkpt lat="43.9080685" lon="12.9258956"><ele>3.0</ele><time>2026-04-08T16:57:03.995Z</time></trkpt><trkpt lat="43.9081166" lon="12.9258045"><ele>3.0</ele><time>2026-04-08T16:57:06.993Z</time></trkpt><trkpt lat="43.9081721" lon="12.9257184"><ele>3.0</ele><time>2026-04-08T16:57:09.993Z</time></trkpt><trkpt lat="43.9082476" lon="12.9256581"><ele>3.0</ele><time>2026-04-08T16:57:12.991Z</time></trkpt><trkpt lat="43.9083179" lon="12.9255853"><ele>3.0</ele><time>2026-04-08T16:57:15.998Z</time></trkpt><trkpt lat="43.9083508" lon="12.9255055"><ele>3.0</ele><time>2026-04-08T16:57:19.01Z</time></trkpt><trkpt lat="43.9083952" lon="12.925411"><ele>3.0</ele><time>2026-04-08T16:57:22.003Z</time></trkpt><trkpt lat="43.9084486" lon="12.9253312"><ele>2.6666666666666665</ele><time>2026-04-08T16:57:25.003Z</time></trkpt><trkpt lat="43.908502" lon="12.9252506"><ele>2.3333333333333335</ele><time>2026-04-08T16:57:28.003Z</time></trkpt><trkpt lat="43.9085593" lon="12.9251843"><ele>2.0</ele><time>2026-04-08T16:57:31Z</time></trkpt><trkpt lat="43.9086214" lon="12.9251173"><ele>1.6666666666666665</ele><time>2026-04-08T16:57:33.998Z</time></trkpt><trkpt lat="43.9086816" lon="12.9250358"><ele>1.3333333333333333</ele><time>2026-04-08T16:57:37.001Z</time></trkpt><trkpt lat="43.9087486" lon="12.9249804"><ele>1.0</ele><time>2026-04-08T16:57:39.995Z</time></trkpt><trkpt lat="43.9088219" lon="12.9249158"><ele>2.5</ele><time>2026-04-08T16:57:43.006Z</time></trkpt><trkpt lat="43.9088737" lon="12.9248554"><ele>4.0</ele><time>2026-04-08T16:57:45.998Z</time></trkpt><trkpt lat="43.9089104" lon="12.9247772"><ele>5.5</ele><time>2026-04-08T16:57:49.003Z</time></trkpt><trkpt lat="43.9089647" lon="12.9246902"><ele>7.0</ele><time>2026-04-08T16:57:52.008Z</time></trkpt><trkpt lat="43.9090254" lon="12.9246184"><ele>8.5</ele><time>2026-04-08T16:57:55.018Z</time></trkpt><trkpt lat="43.909082" lon="12.9245583"><ele>10.0</ele><time>2026-04-08T16:57:58.011Z</time></trkpt><trkpt lat="43.9091515" lon="12.9244797"><ele>10.0</ele><time>2026-04-08T16:58:01.004Z</time></trkpt><trkpt lat="43.9092133" lon="12.9243967"><ele>10.0</ele><time>2026-04-08T16:58:04.006Z</time></trkpt><trkpt lat="43.9092603" lon="12.9243167"><ele>10.0</ele><time>2026-04-08T16:58:07.003Z</time></trkpt><trkpt lat="43.9093095" lon="12.9242379"><ele>10.0</ele><time>2026-04-08T16:58:10.007Z</time></trkpt><trkpt lat="43.9093496" lon="12.9241475"><ele>10.0</ele><time>2026-04-08T16:58:13.008Z</time></trkpt><trkpt lat="43.9094105" lon="12.92405"><ele>10.0</ele><time>2026-04-08T16:58:16.012Z</time></trkpt><trkpt lat="43.9094658" lon="12.9239779"><ele>8.333333333333334</ele><time>2026-04-08T16:58:19.017Z</time></trkpt><trkpt lat="43.909526" lon="12.9239001"><ele>6.666666666666667</ele><time>2026-04-08T16:58:22.011Z</time></trkpt><trkpt lat="43.909575" lon="12.92382"><ele>5.0</ele><time>2026-04-08T16:58:25.014Z</time></trkpt><trkpt lat="43.9096309" lon="12.9237483"><ele>3.3333333333333335</ele><time>2026-04-08T16:58:28.025Z</time></trkpt><trkpt lat="43.9096689" lon="12.9236647"><ele>1.6666666666666667</ele><time>2026-04-08T16:58:31.008Z</time></trkpt><trkpt lat="43.9097282" lon="12.9235818"><ele>0.0</ele><time>2026-04-08T16:58:34.012Z</time></trkpt><trkpt lat="43.9097895" lon="12.9234911"><ele>0.0</ele><time>2026-04-08T16:58:37.006Z</time></trkpt><trkpt lat="43.9098472" lon="12.9234076"><ele>0.0</ele><time>2026-04-08T16:58:39.999Z</time></trkpt><trkpt lat="43.9098842" lon="12.9233206"><ele>0.0</ele><time>2026-04-08T16:58:42.998Z</time></trkpt><trkpt lat="43.9099342" lon="12.9232371"><ele>0.0</ele><time>2026-04-08T16:58:46.002Z</time></trkpt><trkpt lat="43.9099971" lon="12.923157"><ele>0.0</ele><time>2026-04-08T16:58:49.007Z</time></trkpt><trkpt lat="43.9100688" lon="12.9230835"><ele>0.0</ele><time>2026-04-08T16:58:52.019Z</time></trkpt><trkpt lat="43.9101416" lon="12.9230266"><ele>0.5</ele><time>2026-04-08T16:58:55Z</time></trkpt><trkpt lat="43.9102145" lon="12.9229552"><ele>1.0</ele><time>2026-04-08T16:58:58.01Z</time></trkpt><trkpt lat="43.9102805" lon="12.9228959"><ele>1.5</ele><time>2026-04-08T16:59:01.004Z</time></trkpt><trkpt lat="43.9103301" lon="12.9228194"><ele>2.0</ele><time>2026-04-08T16:59:04.008Z</time></trkpt><trkpt lat="43.9104053" lon="12.9228286"><ele>2.5</ele><time>2026-04-08T16:59:08.995Z</time></trkpt><trkpt lat="43.9104446" lon="12.9229192"><ele>3.0</ele><time>2026-04-08T16:59:10.991Z</time></trkpt><trkpt lat="43.9105009" lon="12.923026"><ele>3.0</ele><time>2026-04-08T16:59:13.979Z</time></trkpt><trkpt lat="43.9105681" lon="12.9231047"><ele>3.0</ele><time>2026-04-08T16:59:16.991Z</time></trkpt><trkpt lat="43.9106363" lon="12.9231732"><ele>3.0</ele><time>2026-04-08T16:59:19.976Z</time></trkpt><trkpt lat="43.9107101" lon="12.923209"><ele>3.0</ele><time>2026-04-08T16:59:22.987Z</time></trkpt><trkpt lat="43.9107739" lon="12.9232532"><ele>3.0</ele><time>2026-04-08T16:59:25.991Z</time></trkpt><trkpt lat="43.9108437" lon="12.9232362"><ele>3.0</ele><time>2026-04-08T16:59:29.996Z</time></trkpt><trkpt lat="43.9108884" lon="12.9231529"><ele>2.571428571428571</ele><time>2026-04-08T16:59:32.997Z</time></trkpt><trkpt lat="43.9109277" lon="12.9230722"><ele>2.142857142857143</ele><time>2026-04-08T16:59:36.006Z</time></trkpt><trkpt lat="43.9109605" lon="12.922992"><ele>1.7142857142857142</ele><time>2026-04-08T16:59:39Z</time></trkpt><trkpt lat="43.9110012" lon="12.9229066"><ele>1.2857142857142856</ele><time>2026-04-08T16:59:42.018Z</time></trkpt><trkpt lat="43.9110533" lon="12.9228376"><ele>0.8571428571428571</ele><time>2026-04-08T16:59:44.999Z</time></trkpt><trkpt lat="43.9111046" lon="12.9227637"><ele>0.42857142857142855</ele><time>2026-04-08T16:59:47.997Z</time></trkpt><trkpt lat="43.9111351" lon="12.9226845"><ele>0.0</ele><time>2026-04-08T16:59:50.993Z</time></trkpt><trkpt lat="43.9111794" lon="12.9226185"><ele>0.0</ele><time>2026-04-08T16:59:53.99Z</time></trkpt><trkpt lat="43.9112249" lon="12.9225406"><ele>0.0</ele><time>2026-04-08T16:59:56.994Z</time></trkpt><trkpt lat="43.9112808" lon="12.9224593"><ele>0.0</ele><time>2026-04-08T16:59:59.976Z</time></trkpt><trkpt lat="43.91135" lon="12.9223554"><ele>0.0</ele><time>2026-04-08T17:00:02.97Z</time></trkpt><trkpt lat="43.9114254" lon="12.9222756"><ele>0.0</ele><time>2026-04-08T17:00:04.968Z</time></trkpt><trkpt lat="43.9114993" lon="12.9222622"><ele>0.0</ele><time>2026-04-08T17:00:08.976Z</time></trkpt><trkpt lat="43.9115569" lon="12.9221893"><ele>0.0</ele><time>2026-04-08T17:00:11.988Z</time></trkpt><trkpt lat="43.91161" lon="12.9220984"><ele>0.0</ele><time>2026-04-08T17:00:14.999Z</time></trkpt><trkpt lat="43.9116585" lon="12.922"><ele>0.0</ele><time>2026-04-08T17:00:17.996Z</time></trkpt><trkpt lat="43.9117211" lon="12.92192"><ele>0.0</ele><time>2026-04-08T17:00:20.998Z</time></trkpt><trkpt lat="43.9117723" lon="12.9218583"><ele>0.0</ele><time>2026-04-08T17:00:24.015Z</time></trkpt><trkpt lat="43.9118424" lon="12.9218217"><ele>0.0</ele><time>2026-04-08T17:00:27Z</time></trkpt><trkpt lat="43.9119195" lon="12.9217634"><ele>0.0</ele><time>2026-04-08T17:00:29.998Z</time></trkpt><trkpt lat="43.9119884" lon="12.921683"><ele>0.0</ele><time>2026-04-08T17:00:32.999Z</time></trkpt><trkpt lat="43.9120441" lon="12.9215962"><ele>0.0</ele><time>2026-04-08T17:00:36.007Z</time></trkpt><trkpt lat="43.9120982" lon="12.9215124"><ele>0.0</ele><time>2026-04-08T17:00:39.004Z</time></trkpt><trkpt lat="43.9121487" lon="12.9214327"><ele>0.0</ele><time>2026-04-08T17:00:42.005Z</time></trkpt><trkpt lat="43.9122024" lon="12.9213539"><ele>0.0</ele><time>2026-04-08T17:00:45.004Z</time></trkpt><trkpt lat="43.9122589" lon="12.9212717"><ele>0.0</ele><time>2026-04-08T17:00:47.992Z</time></trkpt><trkpt lat="43.9123152" lon="12.9212022"><ele>0.0</ele><time>2026-04-08T17:00:50.996Z</time></trkpt><trkpt lat="43.912373" lon="12.9211252"><ele>0.0</ele><time>2026-04-08T17:00:53.985Z</time></trkpt><trkpt lat="43.9124471" lon="12.9210711"><ele>0.0</ele><time>2026-04-08T17:00:56.991Z</time></trkpt><trkpt lat="43.9125303" lon="12.9209834"><ele>0.0</ele><time>2026-04-08T17:00:58.984Z</time></trkpt><trkpt lat="43.912531" lon="12.9208944"><ele>0.0</ele><time>2026-04-08T17:01:02.971Z</time></trkpt><trkpt lat="43.9126011" lon="12.9208294"><ele>0.0</ele><time>2026-04-08T17:01:08.982Z</time></trkpt><trkpt lat="43.9126684" lon="12.9208026"><ele>0.0</ele><time>2026-04-08T17:01:10.99Z</time></trkpt><trkpt lat="43.912729" lon="12.9207597"><ele>0.0</ele><time>2026-04-08T17:01:13.001Z</time></trkpt><trkpt lat="43.912773" lon="12.9206717"><ele>0.0</ele><time>2026-04-08T17:01:16.006Z</time></trkpt><trkpt lat="43.9128354" lon="12.9206096"><ele>0.0</ele><time>2026-04-08T17:01:19.007Z</time></trkpt><trkpt lat="43.9128888" lon="12.9205449"><ele>0.0</ele><time>2026-04-08T17:01:22.001Z</time></trkpt><trkpt lat="43.9129377" lon="12.9204611"><ele>0.0</ele><time>2026-04-08T17:01:24.997Z</time></trkpt><trkpt lat="43.9129871" lon="12.9203838"><ele>0.0</ele><time>2026-04-08T17:01:27.997Z</time></trkpt><trkpt lat="43.9130378" lon="12.9202793"><ele>0.0</ele><time>2026-04-08T17:01:30.996Z</time></trkpt><trkpt lat="43.913087" lon="12.9201956"><ele>0.0</ele><time>2026-04-08T17:01:34.002Z</time></trkpt><trkpt lat="43.9131416" lon="12.9201314"><ele>0.0</ele><time>2026-04-08T17:01:37.002Z</time></trkpt><trkpt lat="43.9131998" lon="12.9200572"><ele>0.0</ele><time>2026-04-08T17:01:40.007Z</time></trkpt><trkpt lat="43.9132589" lon="12.9199836"><ele>0.0</ele><time>2026-04-08T17:01:42.996Z</time></trkpt><trkpt lat="43.9133167" lon="12.919904"><ele>0.0</ele><time>2026-04-08T17:01:45.996Z</time></trkpt><trkpt lat="43.9133671" lon="12.9198291"><ele>0.0</ele><time>2026-04-08T17:01:48.994Z</time></trkpt><trkpt lat="43.913433" lon="12.9197622"><ele>0.0</ele><time>2026-04-08T17:01:51.982Z</time></trkpt><trkpt lat="43.9134749" lon="12.9196961"><ele>0.0</ele><time>2026-04-08T17:01:55.003Z</time></trkpt><trkpt lat="43.9134905" lon="12.9196099"><ele>0.0</ele><time>2026-04-08T17:02:00.995Z</time></trkpt><trkpt lat="43.9135593" lon="12.9195811"><ele>0.0</ele><time>2026-04-08T17:02:03.002Z</time></trkpt><trkpt lat="43.9136269" lon="12.9195608"><ele>0.0</ele><time>2026-04-08T17:02:05.002Z</time></trkpt><trkpt lat="43.9137147" lon="12.9195635"><ele>0.0</ele><time>2026-04-08T17:02:07.001Z</time></trkpt><trkpt lat="43.9138" lon="12.9195269"><ele>0.0</ele><time>2026-04-08T17:02:09.005Z</time></trkpt><trkpt lat="43.9138712" lon="12.9194484"><ele>0.0</ele><time>2026-04-08T17:02:12.007Z</time></trkpt><trkpt lat="43.9139294" lon="12.9194001"><ele>0.0</ele><time>2026-04-08T17:02:13.997Z</time></trkpt><trkpt lat="43.9139853" lon="12.9193513"><ele>0.0</ele><time>2026-04-08T17:02:16Z</time></trkpt><trkpt lat="43.9140625" lon="12.9192913"><ele>0.0</ele><time>2026-04-08T17:02:19.004Z</time></trkpt><trkpt lat="43.9141382" lon="12.919276"><ele>0.0</ele><time>2026-04-08T17:02:22.014Z</time></trkpt><trkpt lat="43.9142131" lon="12.9192907"><ele>0.0</ele><time>2026-04-08T17:02:24.999Z</time></trkpt><trkpt lat="43.9142903" lon="12.9193031"><ele>0.0</ele><time>2026-04-08T17:02:28.008Z</time></trkpt><trkpt lat="43.9143771" lon="12.9192856"><ele>0.0</ele><time>2026-04-08T17:02:31.019Z</time></trkpt><trkpt lat="43.9144609" lon="12.9192365"><ele>0.0</ele><time>2026-04-08T17:02:34.017Z</time></trkpt><trkpt lat="43.9145351" lon="12.9191777"><ele>0.0</ele><time>2026-04-08T17:02:37.008Z</time></trkpt><trkpt lat="43.9145993" lon="12.9191076"><ele>0.0</ele><time>2026-04-08T17:02:40.006Z</time></trkpt><trkpt lat="43.9146461" lon="12.9190192"><ele>0.0</ele><time>2026-04-08T17:02:43.014Z</time></trkpt><trkpt lat="43.9146843" lon="12.9189216"><ele>0.0</ele><time>2026-04-08T17:02:46.001Z</time></trkpt><trkpt lat="43.9147227" lon="12.9188346"><ele>0.0</ele><time>2026-04-08T17:02:48.999Z</time></trkpt><trkpt lat="43.9147599" lon="12.9187392"><ele>0.0</ele><time>2026-04-08T17:02:52.014Z</time></trkpt><trkpt lat="43.914782" lon="12.9186228"><ele>0.0</ele><time>2026-04-08T17:02:55.01Z</time></trkpt><trkpt lat="43.9147822" lon="12.9185083"><ele>0.0</ele><time>2026-04-08T17:02:58.002Z</time></trkpt><trkpt lat="43.9147933" lon="12.9183899"><ele>0.0</ele><time>2026-04-08T17:03:01.003Z</time></trkpt><trkpt lat="43.91485" lon="12.9182969"><ele>0.0</ele><time>2026-04-08T17:03:04.007Z</time></trkpt><trkpt lat="43.9149163" lon="12.9182428"><ele>0.0</ele><time>2026-04-08T17:03:07.01Z</time></trkpt><trkpt lat="43.914993" lon="12.9181896"><ele>0.0</ele><time>2026-04-08T17:03:10.014Z</time></trkpt><trkpt lat="43.9150644" lon="12.918129"><ele>0.0</ele><time>2026-04-08T17:03:13.008Z</time></trkpt><trkpt lat="43.9151207" lon="12.918063"><ele>0.0</ele><time>2026-04-08T17:03:16.011Z</time></trkpt><trkpt lat="43.9151781" lon="12.9180048"><ele>0.0</ele><time>2026-04-08T17:03:19.006Z</time></trkpt><trkpt lat="43.9152345" lon="12.9179367"><ele>0.0</ele><time>2026-04-08T17:03:22.009Z</time></trkpt><trkpt lat="43.9153052" lon="12.9178739"><ele>0.0</ele><time>2026-04-08T17:03:25.01Z</time></trkpt><trkpt lat="43.9153755" lon="12.9178225"><ele>0.0</ele><time>2026-04-08T17:03:28.009Z</time></trkpt><trkpt lat="43.9154552" lon="12.9177768"><ele>0.0</ele><time>2026-04-08T17:03:30.995Z</time></trkpt><trkpt lat="43.9155373" lon="12.9177469"><ele>0.0</ele><time>2026-04-08T17:03:34.017Z</time></trkpt><trkpt lat="43.9156082" lon="12.9176865"><ele>0.0</ele><time>2026-04-08T17:03:37.014Z</time></trkpt><trkpt lat="43.9156598" lon="12.9175923"><ele>0.0</ele><time>2026-04-08T17:03:40.017Z</time></trkpt><trkpt lat="43.9156631" lon="12.9174753"><ele>0.0</ele><time>2026-04-08T17:03:43.008Z</time></trkpt><trkpt lat="43.9156148" lon="12.9173711"><ele>0.0</ele><time>2026-04-08T17:03:45.004Z</time></trkpt><trkpt lat="43.91555" lon="12.9172792"><ele>0.0</ele><time>2026-04-08T17:03:48.993Z</time></trkpt><trkpt lat="43.9154951" lon="12.9171963"><ele>0.0</ele><time>2026-04-08T17:03:51.008Z</time></trkpt><trkpt lat="43.9154552" lon="12.9171046"><ele>0.0</ele><time>2026-04-08T17:03:54.014Z</time></trkpt><trkpt lat="43.9154709" lon="12.9169992"><ele>0.0</ele><time>2026-04-08T17:03:57.012Z</time></trkpt><trkpt lat="43.9154765" lon="12.9168947"><ele>0.0</ele><time>2026-04-08T17:04:00.005Z</time></trkpt><trkpt lat="43.9154606" lon="12.916788"><ele>0.0</ele><time>2026-04-08T17:04:04.002Z</time></trkpt><trkpt lat="43.9155156" lon="12.9166846"><ele>0.0</ele><time>2026-04-08T17:04:07Z</time></trkpt><trkpt lat="43.9155963" lon="12.9166134"><ele>0.0</ele><time>2026-04-08T17:04:10.002Z</time></trkpt><trkpt lat="43.9156679" lon="12.9165414"><ele>0.0</ele><time>2026-04-08T17:04:12.988Z</time></trkpt><trkpt lat="43.9157192" lon="12.9164529"><ele>0.0</ele><time>2026-04-08T17:04:15.996Z</time></trkpt><trkpt lat="43.915776" lon="12.9163721"><ele>0.0</ele><time>2026-04-08T17:04:18.996Z</time></trkpt><trkpt lat="43.9158469" lon="12.9162863"><ele>0.0</ele><time>2026-04-08T17:04:21.982Z</time></trkpt><trkpt lat="43.9159138" lon="12.9162327"><ele>0.0</ele><time>2026-04-08T17:04:23.992Z</time></trkpt><trkpt lat="43.9159538" lon="12.9161493"><ele>0.0</ele><time>2026-04-08T17:04:26.991Z</time></trkpt><trkpt lat="43.9159175" lon="12.9160684"><ele>0.0</ele><time>2026-04-08T17:04:29.981Z</time></trkpt><trkpt lat="43.9158431" lon="12.9159596"><ele>0.0</ele><time>2026-04-08T17:04:38.975Z</time></trkpt><trkpt lat="43.9157842" lon="12.9159063"><ele>0.0</ele><time>2026-04-08T17:04:39.983Z</time></trkpt><trkpt lat="43.9157034" lon="12.9158768"><ele>0.0</ele><time>2026-04-08T17:04:40.982Z</time></trkpt><trkpt lat="43.9156315" lon="12.9157877"><ele>0.0</ele><time>2026-04-08T17:04:42.97Z</time></trkpt><trkpt lat="43.9155404" lon="12.9157085"><ele>0.2</ele><time>2026-04-08T17:04:44.995Z</time></trkpt><trkpt lat="43.9154632" lon="12.9156424"><ele>0.4</ele><time>2026-04-08T17:04:46.984Z</time></trkpt><trkpt lat="43.9155048" lon="12.9154553"><ele>0.6000000000000001</ele><time>2026-04-08T17:04:48.994Z</time></trkpt><trkpt lat="43.9155449" lon="12.9153668"><ele>0.8</ele><time>2026-04-08T17:04:49.987Z</time></trkpt><trkpt lat="43.9155869" lon="12.9152788"><ele>1.0</ele><time>2026-04-08T17:04:51.975Z</time></trkpt><trkpt lat="43.9156889" lon="12.9152243"><ele>0.9999999999999999</ele><time>2026-04-08T17:04:55.984Z</time></trkpt><trkpt lat="43.9157793" lon="12.9152272"><ele>1.0</ele><time>2026-04-08T17:04:57.984Z</time></trkpt><trkpt lat="43.915851" lon="12.9151995"><ele>1.0</ele><time>2026-04-08T17:05:00.976Z</time></trkpt><trkpt lat="43.915864" lon="12.9151014"><ele>1.0</ele><time>2026-04-08T17:05:05.983Z</time></trkpt><trkpt lat="43.9158959" lon="12.915004"><ele>0.9999999999999999</ele><time>2026-04-08T17:05:09.985Z</time></trkpt><trkpt lat="43.9159376" lon="12.9149329"><ele>1.0</ele><time>2026-04-08T17:05:11.994Z</time></trkpt><trkpt lat="43.9159963" lon="12.9148577"><ele>0.9999999999999999</ele><time>2026-04-08T17:05:13.989Z</time></trkpt><trkpt lat="43.9160646" lon="12.9147896"><ele>1.0</ele><time>2026-04-08T17:05:15.995Z</time></trkpt><trkpt lat="43.9161135" lon="12.9147315"><ele>1.0</ele><time>2026-04-08T17:05:17.991Z</time></trkpt><trkpt lat="43.916181" lon="12.9146668"><ele>1.0</ele><time>2026-04-08T17:05:21.001Z</time></trkpt><trkpt lat="43.9162317" lon="12.914571"><ele>0.9999999999999999</ele><time>2026-04-08T17:05:24.001Z</time></trkpt><trkpt lat="43.9162795" lon="12.9144752"><ele>1.0</ele><time>2026-04-08T17:05:26.995Z</time></trkpt><trkpt lat="43.9163203" lon="12.9144084"><ele>0.9999999999999999</ele><time>2026-04-08T17:05:28.998Z</time></trkpt><trkpt lat="43.9163728" lon="12.9143139"><ele>1.0</ele><time>2026-04-08T17:05:32Z</time></trkpt><trkpt lat="43.916428" lon="12.9142171"><ele>1.0</ele><time>2026-04-08T17:05:34.992Z</time></trkpt><trkpt lat="43.9164864" lon="12.9141261"><ele>1.0</ele><time>2026-04-08T17:05:38Z</time></trkpt><trkpt lat="43.9165556" lon="12.914046"><ele>0.9999999999999999</ele><time>2026-04-08T17:05:41Z</time></trkpt><trkpt lat="43.9166276" lon="12.9139655"><ele>1.0</ele><time>2026-04-08T17:05:44.003Z</time></trkpt><trkpt lat="43.9166871" lon="12.9138766"><ele>0.8571428571428571</ele><time>2026-04-08T17:05:46.999Z</time></trkpt><trkpt lat="43.9167607" lon="12.913796"><ele>0.7142857142857142</ele><time>2026-04-08T17:05:49.997Z</time></trkpt><trkpt lat="43.9168117" lon="12.9137435"><ele>0.5714285714285714</ele><time>2026-04-08T17:05:51.997Z</time></trkpt><trkpt lat="43.9168586" lon="12.913685"><ele>0.42857142857142855</ele><time>2026-04-08T17:05:53.999Z</time></trkpt><trkpt lat="43.9169138" lon="12.9135939"><ele>0.2857142857142857</ele><time>2026-04-08T17:05:57.01Z</time></trkpt><trkpt lat="43.9169608" lon="12.9135352"><ele>0.14285714285714285</ele><time>2026-04-08T17:05:59.006Z</time></trkpt><trkpt lat="43.9170214" lon="12.9134629"><ele>0.0</ele><time>2026-04-08T17:06:01.994Z</time></trkpt><trkpt lat="43.9170794" lon="12.9133731"><ele>-0.16666666666666666</ele><time>2026-04-08T17:06:05.006Z</time></trkpt><trkpt lat="43.9171367" lon="12.9132849"><ele>-0.3333333333333333</ele><time>2026-04-08T17:06:08Z</time></trkpt><trkpt lat="43.917198" lon="12.9131981"><ele>-0.5</ele><time>2026-04-08T17:06:10.997Z</time></trkpt><trkpt lat="43.9172667" lon="12.9131192"><ele>-0.6666666666666666</ele><time>2026-04-08T17:06:13.995Z</time></trkpt><trkpt lat="43.9173285" lon="12.9130329"><ele>-0.8333333333333333</ele><time>2026-04-08T17:06:16.997Z</time></trkpt><trkpt lat="43.917375" lon="12.9129416"><ele>-1.0</ele><time>2026-04-08T17:06:20.004Z</time></trkpt><trkpt lat="43.9174182" lon="12.912877"><ele>-0.9999999999999999</ele><time>2026-04-08T17:06:22.003Z</time></trkpt><trkpt lat="43.9174789" lon="12.9127794"><ele>-1.0</ele><time>2026-04-08T17:06:25.006Z</time></trkpt><trkpt lat="43.9175472" lon="12.9126932"><ele>-1.0</ele><time>2026-04-08T17:06:28.005Z</time></trkpt><trkpt lat="43.9176162" lon="12.9126179"><ele>-1.0</ele><time>2026-04-08T17:06:31.02Z</time></trkpt><trkpt lat="43.9176696" lon="12.9125349"><ele>-0.9999999999999999</ele><time>2026-04-08T17:06:34.001Z</time></trkpt><trkpt lat="43.9177215" lon="12.9124551"><ele>-1.0</ele><time>2026-04-08T17:06:37.002Z</time></trkpt><trkpt lat="43.9177795" lon="12.9123647"><ele>-0.49999999999999994</ele><time>2026-04-08T17:06:40.012Z</time></trkpt><trkpt lat="43.9178261" lon="12.9122998"><ele>0.0</ele><time>2026-04-08T17:06:42.011Z</time></trkpt><trkpt lat="43.9178902" lon="12.9122223"><ele>0.5</ele><time>2026-04-08T17:06:45.008Z</time></trkpt><trkpt lat="43.9179587" lon="12.9121483"><ele>1.0</ele><time>2026-04-08T17:06:48.011Z</time></trkpt><trkpt lat="43.9180207" lon="12.9120643"><ele>1.4999999999999998</ele><time>2026-04-08T17:06:51.011Z</time></trkpt><trkpt lat="43.9180663" lon="12.9120036"><ele>2.0</ele><time>2026-04-08T17:06:53.008Z</time></trkpt><trkpt lat="43.9181151" lon="12.9119119"><ele>1.9999999999999998</ele><time>2026-04-08T17:06:56.003Z</time></trkpt><trkpt lat="43.918181" lon="12.9118273"><ele>2.0</ele><time>2026-04-08T17:06:59Z</time></trkpt><trkpt lat="43.9182247" lon="12.9117593"><ele>2.0</ele><time>2026-04-08T17:07:01.016Z</time></trkpt><trkpt lat="43.9182679" lon="12.9116947"><ele>2.0</ele><time>2026-04-08T17:07:03.005Z</time></trkpt><trkpt lat="43.9183355" lon="12.9116052"><ele>1.9999999999999998</ele><time>2026-04-08T17:07:06Z</time></trkpt><trkpt lat="43.9183822" lon="12.9115278"><ele>2.0</ele><time>2026-04-08T17:07:08.007Z</time></trkpt><trkpt lat="43.9184469" lon="12.911451"><ele>1.6666666666666665</ele><time>2026-04-08T17:07:09.989Z</time></trkpt><trkpt lat="43.9185241" lon="12.9114362"><ele>1.3333333333333333</ele><time>2026-04-08T17:07:11.993Z</time></trkpt><trkpt lat="43.9185713" lon="12.9113723"><ele>1.0</ele><time>2026-04-08T17:07:13.988Z</time></trkpt><trkpt lat="43.9185971" lon="12.9112727"><ele>0.6666666666666666</ele><time>2026-04-08T17:07:17.004Z</time></trkpt><trkpt lat="43.91865" lon="12.9111744"><ele>0.3333333333333333</ele><time>2026-04-08T17:07:19.999Z</time></trkpt><trkpt lat="43.9187198" lon="12.9110853"><ele>0.0</ele><time>2026-04-08T17:07:23.012Z</time></trkpt><trkpt lat="43.918787" lon="12.9110006"><ele>0.0</ele><time>2026-04-08T17:07:26.012Z</time></trkpt><trkpt lat="43.9188311" lon="12.9109334"><ele>0.0</ele><time>2026-04-08T17:07:28.011Z</time></trkpt><trkpt lat="43.9188957" lon="12.9108498"><ele>0.0</ele><time>2026-04-08T17:07:31.009Z</time></trkpt><trkpt lat="43.9189592" lon="12.91076"><ele>0.0</ele><time>2026-04-08T17:07:34.014Z</time></trkpt><trkpt lat="43.919005" lon="12.9106972"><ele>0.0</ele><time>2026-04-08T17:07:36.023Z</time></trkpt><trkpt lat="43.9190555" lon="12.9106361"><ele>0.0</ele><time>2026-04-08T17:07:38.006Z</time></trkpt><trkpt lat="43.9191244" lon="12.910548"><ele>0.0</ele><time>2026-04-08T17:07:41.016Z</time></trkpt><trkpt lat="43.9191723" lon="12.9104834"><ele>0.0</ele><time>2026-04-08T17:07:43.006Z</time></trkpt><trkpt lat="43.9192192" lon="12.9104186"><ele>0.0</ele><time>2026-04-08T17:07:45.011Z</time></trkpt><trkpt lat="43.919283" lon="12.9103242"><ele>0.0</ele><time>2026-04-08T17:07:48.002Z</time></trkpt><trkpt lat="43.9193431" lon="12.9102317"><ele>0.0</ele><time>2026-04-08T17:07:51.012Z</time></trkpt><trkpt lat="43.9193868" lon="12.9101631"><ele>0.0</ele><time>2026-04-08T17:07:53.011Z</time></trkpt><trkpt lat="43.919438" lon="12.9100945"><ele>0.0</ele><time>2026-04-08T17:07:55.005Z</time></trkpt><trkpt lat="43.9194901" lon="12.9100255"><ele>0.0</ele><time>2026-04-08T17:07:57.007Z</time></trkpt><trkpt lat="43.9195434" lon="12.9099577"><ele>0.0</ele><time>2026-04-08T17:07:59.002Z</time></trkpt><trkpt lat="43.9195914" lon="12.9098896"><ele>0.0</ele><time>2026-04-08T17:08:01Z</time></trkpt><trkpt lat="43.9196423" lon="12.9098222"><ele>0.0</ele><time>2026-04-08T17:08:02.998Z</time></trkpt><trkpt lat="43.919696" lon="12.9097578"><ele>0.0</ele><time>2026-04-08T17:08:05.007Z</time></trkpt><trkpt lat="43.9197453" lon="12.9096933"><ele>0.0</ele><time>2026-04-08T17:08:06.997Z</time></trkpt><trkpt lat="43.9198021" lon="12.9096212"><ele>0.0</ele><time>2026-04-08T17:08:09.002Z</time></trkpt><trkpt lat="43.9198551" lon="12.9095528"><ele>0.0</ele><time>2026-04-08T17:08:11.003Z</time></trkpt><trkpt lat="43.919904" lon="12.9094881"><ele>0.0</ele><time>2026-04-08T17:08:12.999Z</time></trkpt><trkpt lat="43.9199495" lon="12.9094178"><ele>0.0</ele><time>2026-04-08T17:08:14.999Z</time></trkpt><trkpt lat="43.9199975" lon="12.9093507"><ele>0.0</ele><time>2026-04-08T17:08:17Z</time></trkpt><trkpt lat="43.9200522" lon="12.909291"><ele>0.0</ele><time>2026-04-08T17:08:18.993Z</time></trkpt><trkpt lat="43.9201001" lon="12.9092215"><ele>0.0</ele><time>2026-04-08T17:08:20.997Z</time></trkpt><trkpt lat="43.9201416" lon="12.909153"><ele>0.0</ele><time>2026-04-08T17:08:23.003Z</time></trkpt><trkpt lat="43.9201847" lon="12.9090828"><ele>0.0</ele><time>2026-04-08T17:08:24.993Z</time></trkpt><trkpt lat="43.9202204" lon="12.9090089"><ele>0.0</ele><time>2026-04-08T17:08:26.994Z</time></trkpt><trkpt lat="43.9202816" lon="12.908908"><ele>0.0</ele><time>2026-04-08T17:08:30.002Z</time></trkpt><trkpt lat="43.9203394" lon="12.9088046"><ele>0.0</ele><time>2026-04-08T17:08:33.021Z</time></trkpt><trkpt lat="43.9204097" lon="12.9087154"><ele>0.0</ele><time>2026-04-08T17:08:36.005Z</time></trkpt><trkpt lat="43.9204598" lon="12.9086589"><ele>0.0</ele><time>2026-04-08T17:08:38.007Z</time></trkpt><trkpt lat="43.9205097" lon="12.9085956"><ele>0.0</ele><time>2026-04-08T17:08:40Z</time></trkpt><trkpt lat="43.9205625" lon="12.9085348"><ele>0.0</ele><time>2026-04-08T17:08:42.007Z</time></trkpt><trkpt lat="43.9206109" lon="12.9084629"><ele>0.0</ele><time>2026-04-08T17:08:44.006Z</time></trkpt><trkpt lat="43.9206598" lon="12.9083942"><ele>0.0</ele><time>2026-04-08T17:08:46.004Z</time></trkpt><trkpt lat="43.9207121" lon="12.9083292"><ele>0.0</ele><time>2026-04-08T17:08:48.009Z</time></trkpt><trkpt lat="43.9207608" lon="12.9082646"><ele>0.0</ele><time>2026-04-08T17:08:50.013Z</time></trkpt><trkpt lat="43.9208098" lon="12.9081962"><ele>-0.14285714285714285</ele><time>2026-04-08T17:08:52.007Z</time></trkpt><trkpt lat="43.9208576" lon="12.9081273"><ele>-0.2857142857142857</ele><time>2026-04-08T17:08:53.999Z</time></trkpt><trkpt lat="43.9208986" lon="12.9080605"><ele>-0.42857142857142855</ele><time>2026-04-08T17:08:55.994Z</time></trkpt><trkpt lat="43.9209457" lon="12.9079961"><ele>-0.5714285714285714</ele><time>2026-04-08T17:08:58.003Z</time></trkpt><trkpt lat="43.9210163" lon="12.9079099"><ele>-0.7142857142857142</ele><time>2026-04-08T17:09:00.994Z</time></trkpt><trkpt lat="43.9210602" lon="12.9078415"><ele>-0.8571428571428571</ele><time>2026-04-08T17:09:03.025Z</time></trkpt><trkpt lat="43.921127" lon="12.907764"><ele>-1.0</ele><time>2026-04-08T17:09:06.003Z</time></trkpt><trkpt lat="43.9211749" lon="12.9077042"><ele>-0.8333333333333333</ele><time>2026-04-08T17:09:08.003Z</time></trkpt><trkpt lat="43.9212193" lon="12.9076405"><ele>-0.6666666666666666</ele><time>2026-04-08T17:09:10.008Z</time></trkpt><trkpt lat="43.9212655" lon="12.9075705"><ele>-0.5</ele><time>2026-04-08T17:09:12.004Z</time></trkpt><trkpt lat="43.9213271" lon="12.9074777"><ele>-0.3333333333333333</ele><time>2026-04-08T17:09:15.021Z</time></trkpt><trkpt lat="43.921388" lon="12.9073813"><ele>-0.16666666666666666</ele><time>2026-04-08T17:09:18.019Z</time></trkpt><trkpt lat="43.9214296" lon="12.9072974"><ele>0.0</ele><time>2026-04-08T17:09:20.014Z</time></trkpt><trkpt lat="43.9214776" lon="12.9072326"><ele>0.0</ele><time>2026-04-08T17:09:22.013Z</time></trkpt><trkpt lat="43.9215428" lon="12.9071464"><ele>0.0</ele><time>2026-04-08T17:09:25.017Z</time></trkpt><trkpt lat="43.9216062" lon="12.9070601"><ele>0.0</ele><time>2026-04-08T17:09:28.016Z</time></trkpt><trkpt lat="43.9216738" lon="12.9069837"><ele>0.0</ele><time>2026-04-08T17:09:31.008Z</time></trkpt><trkpt lat="43.9217428" lon="12.9069176"><ele>0.0</ele><time>2026-04-08T17:09:34.035Z</time></trkpt><trkpt lat="43.9218081" lon="12.9068276"><ele>0.0</ele><time>2026-04-08T17:09:37.019Z</time></trkpt><trkpt lat="43.9218602" lon="12.9067605"><ele>0.0</ele><time>2026-04-08T17:09:39.023Z</time></trkpt><trkpt lat="43.9219218" lon="12.906671"><ele>0.0</ele><time>2026-04-08T17:09:42.002Z</time></trkpt><trkpt lat="43.9219876" lon="12.9065822"><ele>0.0</ele><time>2026-04-08T17:09:45.014Z</time></trkpt><trkpt lat="43.9220558" lon="12.9064972"><ele>0.0</ele><time>2026-04-08T17:09:48.014Z</time></trkpt><trkpt lat="43.9221172" lon="12.9064015"><ele>0.0</ele><time>2026-04-08T17:09:51.007Z</time></trkpt><trkpt lat="43.9221673" lon="12.9063335"><ele>0.0</ele><time>2026-04-08T17:09:53.007Z</time></trkpt><trkpt lat="43.9222298" lon="12.9062521"><ele>0.0</ele><time>2026-04-08T17:09:56.007Z</time></trkpt><trkpt lat="43.9222965" lon="12.9062342"><ele>0.0</ele><time>2026-04-08T17:09:59.011Z</time></trkpt><trkpt lat="43.9223751" lon="12.9063052"><ele>0.0</ele><time>2026-04-08T17:10:02.007Z</time></trkpt><trkpt lat="43.9224344" lon="12.9063971"><ele>0.0</ele><time>2026-04-08T17:10:05.016Z</time></trkpt><trkpt lat="43.9224915" lon="12.9064857"><ele>0.0</ele><time>2026-04-08T17:10:08Z</time></trkpt><trkpt lat="43.9225331" lon="12.9065873"><ele>0.0</ele><time>2026-04-08T17:10:11.005Z</time></trkpt><trkpt lat="43.9225777" lon="12.9066816"><ele>0.5</ele><time>2026-04-08T17:10:14.01Z</time></trkpt><trkpt lat="43.9226701" lon="12.9067527"><ele>1.0</ele><time>2026-04-08T17:10:16.999Z</time></trkpt><trkpt lat="43.9227254" lon="12.9068123"><ele>1.5</ele><time>2026-04-08T17:10:17.987Z</time></trkpt><trkpt lat="43.9227711" lon="12.9069148"><ele>2.0</ele><time>2026-04-08T17:10:18.973Z</time></trkpt><trkpt lat="43.9228384" lon="12.9069879"><ele>2.5</ele><time>2026-04-08T17:10:19.992Z</time></trkpt><trkpt lat="43.9228955" lon="12.9070495"><ele>3.0</ele><time>2026-04-08T17:10:21.98Z</time></trkpt><trkpt lat="43.922983" lon="12.9070246"><ele>3.0</ele><time>2026-04-08T17:10:26.976Z</time></trkpt><trkpt lat="43.923026" lon="12.9069591"><ele>3.0</ele><time>2026-04-08T17:10:28.984Z</time></trkpt><trkpt lat="43.923101" lon="12.9069182"><ele>3.0</ele><time>2026-04-08T17:10:31.994Z</time></trkpt><trkpt lat="43.9231675" lon="12.9068857"><ele>3.0</ele><time>2026-04-08T17:10:33.999Z</time></trkpt><trkpt lat="43.9232222" lon="12.9067996"><ele>3.0</ele><time>2026-04-08T17:10:36.997Z</time></trkpt><trkpt lat="43.9232707" lon="12.906694"><ele>3.0</ele><time>2026-04-08T17:10:40.011Z</time></trkpt><trkpt lat="43.9233152" lon="12.9066134"><ele>2.5</ele><time>2026-04-08T17:10:42.004Z</time></trkpt><trkpt lat="43.9233771" lon="12.9065256"><ele>2.0</ele><time>2026-04-08T17:10:44.997Z</time></trkpt><trkpt lat="43.9234563" lon="12.9065017"><ele>1.5</ele><time>2026-04-08T17:10:48.006Z</time></trkpt><trkpt lat="43.9235498" lon="12.9065179"><ele>1.0</ele><time>2026-04-08T17:10:51.012Z</time></trkpt><trkpt lat="43.9236125" lon="12.9065259"><ele>0.5</ele><time>2026-04-08T17:10:53.013Z</time></trkpt><trkpt lat="43.9236751" lon="12.9065432"><ele>0.0</ele><time>2026-04-08T17:10:55.018Z</time></trkpt><trkpt lat="43.9237389" lon="12.9065699"><ele>-0.42857142857142855</ele><time>2026-04-08T17:10:57.019Z</time></trkpt><trkpt lat="43.9238038" lon="12.9065846"><ele>-0.8571428571428571</ele><time>2026-04-08T17:10:59.016Z</time></trkpt><trkpt lat="43.9238662" lon="12.9066001"><ele>-1.2857142857142856</ele><time>2026-04-08T17:11:01.014Z</time></trkpt><trkpt lat="43.9239289" lon="12.9066217"><ele>-1.7142857142857142</ele><time>2026-04-08T17:11:03.015Z</time></trkpt><trkpt lat="43.9239919" lon="12.906646"><ele>-2.142857142857143</ele><time>2026-04-08T17:11:05.013Z</time></trkpt><trkpt lat="43.9240538" lon="12.906667"><ele>-2.571428571428571</ele><time>2026-04-08T17:11:07.032Z</time></trkpt><trkpt lat="43.924116" lon="12.9066895"><ele>-3.0</ele><time>2026-04-08T17:11:09.016Z</time></trkpt><trkpt lat="43.9241968" lon="12.9067145"><ele>-2.5</ele><time>2026-04-08T17:11:12.015Z</time></trkpt><trkpt lat="43.9242914" lon="12.9067361"><ele>-2.0</ele><time>2026-04-08T17:11:15.012Z</time></trkpt><trkpt lat="43.9243706" lon="12.9067881"><ele>-1.5</ele><time>2026-04-08T17:11:18.009Z</time></trkpt><trkpt lat="43.9244662" lon="12.9068132"><ele>-1.0</ele><time>2026-04-08T17:11:21.019Z</time></trkpt><trkpt lat="43.9245309" lon="12.906792"><ele>-0.5</ele><time>2026-04-08T17:11:23.018Z</time></trkpt><trkpt lat="43.9244627" lon="12.9067228"><ele>0.0</ele><time>2026-04-08T17:11:26.013Z</time></trkpt><trkpt lat="43.9243863" lon="12.9066964"><ele>0.0</ele><time>2026-04-08T17:11:28.007Z</time></trkpt><trkpt lat="43.9243231" lon="12.9066629"><ele>0.0</ele><time>2026-04-08T17:11:30.006Z</time></trkpt><trkpt lat="43.9242369" lon="12.9066447"><ele>0.0</ele><time>2026-04-08T17:11:33.013Z</time></trkpt><trkpt lat="43.9241654" lon="12.9066283"><ele>0.0</ele><time>2026-04-08T17:11:36.012Z</time></trkpt><trkpt lat="43.9240786" lon="12.9066066"><ele>0.0</ele><time>2026-04-08T17:11:39.012Z</time></trkpt><trkpt lat="43.9239934" lon="12.9065808"><ele>0.0</ele><time>2026-04-08T17:11:42.011Z</time></trkpt><trkpt lat="43.923912" lon="12.9065463"><ele>-0.5</ele><time>2026-04-08T17:11:45.018Z</time></trkpt><trkpt lat="43.923836" lon="12.9065245"><ele>-1.0</ele><time>2026-04-08T17:11:48.028Z</time></trkpt><trkpt lat="43.9237506" lon="12.9065059"><ele>-1.5</ele><time>2026-04-08T17:11:51.023Z</time></trkpt><trkpt lat="43.9236714" lon="12.9064795"><ele>-2.0</ele><time>2026-04-08T17:11:54.019Z</time></trkpt><trkpt lat="43.9236014" lon="12.9064897"><ele>-2.5</ele><time>2026-04-08T17:11:57.011Z</time></trkpt><trkpt lat="43.9235217" lon="12.9065204"><ele>-3.0</ele><time>2026-04-08T17:12:00.007Z</time></trkpt><trkpt lat="43.9234402" lon="12.9065214"><ele>-2.5</ele><time>2026-04-08T17:12:03.014Z</time></trkpt><trkpt lat="43.9233525" lon="12.9065189"><ele>-2.0</ele><time>2026-04-08T17:12:06.017Z</time></trkpt><trkpt lat="43.9232648" lon="12.9065293"><ele>-1.5</ele><time>2026-04-08T17:12:09.017Z</time></trkpt><trkpt lat="43.923178" lon="12.9065534"><ele>-1.0</ele><time>2026-04-08T17:12:12.013Z</time></trkpt><trkpt lat="43.9231096" lon="12.9066056"><ele>-0.5</ele><time>2026-04-08T17:12:15.012Z</time></trkpt><trkpt lat="43.9230419" lon="12.9066629"><ele>0.0</ele><time>2026-04-08T17:12:18.018Z</time></trkpt><trkpt lat="43.9229621" lon="12.9067114"><ele>0.0</ele><time>2026-04-08T17:12:21.009Z</time></trkpt><trkpt lat="43.9228766" lon="12.9067453"><ele>0.0</ele><time>2026-04-08T17:12:24.003Z</time></trkpt><trkpt lat="43.9227962" lon="12.9067669"><ele>0.0</ele><time>2026-04-08T17:12:27.004Z</time></trkpt><trkpt lat="43.9227085" lon="12.9067629"><ele>0.0</ele><time>2026-04-08T17:12:30.006Z</time></trkpt><trkpt lat="43.9226307" lon="12.9067158"><ele>0.0</ele><time>2026-04-08T17:12:33.009Z</time></trkpt><trkpt lat="43.9225808" lon="12.9066231"><ele>0.0</ele><time>2026-04-08T17:12:36.007Z</time></trkpt><trkpt lat="43.922555" lon="12.9065079"><ele>0.0</ele><time>2026-04-08T17:12:39.028Z</time></trkpt><trkpt lat="43.9225233" lon="12.9064069"><ele>0.0</ele><time>2026-04-08T17:12:42.012Z</time></trkpt><trkpt lat="43.9224718" lon="12.9063249"><ele>0.0</ele><time>2026-04-08T17:12:45.013Z</time></trkpt><trkpt lat="43.9224091" lon="12.9062512"><ele>0.0</ele><time>2026-04-08T17:12:48.027Z</time></trkpt><trkpt lat="43.9223386" lon="12.9061878"><ele>0.0</ele><time>2026-04-08T17:12:51.017Z</time></trkpt><trkpt lat="43.9222609" lon="12.9061765"><ele>0.0</ele><time>2026-04-08T17:12:54.007Z</time></trkpt><trkpt lat="43.9221827" lon="12.906232"><ele>0.0</ele><time>2026-04-08T17:12:57.012Z</time></trkpt><trkpt lat="43.9221203" lon="12.9062932"><ele>0.0</ele><time>2026-04-08T17:13:00.01Z</time></trkpt><trkpt lat="43.922056" lon="12.9063815"><ele>0.0</ele><time>2026-04-08T17:13:03.015Z</time></trkpt><trkpt lat="43.9220162" lon="12.9064498"><ele>0.0</ele><time>2026-04-08T17:13:05.013Z</time></trkpt><trkpt lat="43.9219657" lon="12.9065348"><ele>0.0</ele><time>2026-04-08T17:13:08.015Z</time></trkpt><trkpt lat="43.9219124" lon="12.9066042"><ele>0.0</ele><time>2026-04-08T17:13:11.014Z</time></trkpt><trkpt lat="43.9218619" lon="12.9066842"><ele>0.0</ele><time>2026-04-08T17:13:14.01Z</time></trkpt><trkpt lat="43.9218175" lon="12.9067773"><ele>0.0</ele><time>2026-04-08T17:13:17.011Z</time></trkpt><trkpt lat="43.921764" lon="12.9068569"><ele>0.0</ele><time>2026-04-08T17:13:20.011Z</time></trkpt><trkpt lat="43.9217062" lon="12.9069429"><ele>0.0</ele><time>2026-04-08T17:13:23.01Z</time></trkpt><trkpt lat="43.921648" lon="12.907005"><ele>0.0</ele><time>2026-04-08T17:13:26.017Z</time></trkpt><trkpt lat="43.9215942" lon="12.9070789"><ele>0.0</ele><time>2026-04-08T17:13:29.016Z</time></trkpt><trkpt lat="43.921544" lon="12.9071724"><ele>0.0</ele><time>2026-04-08T17:13:32.014Z</time></trkpt><trkpt lat="43.9214879" lon="12.907244"><ele>0.0</ele><time>2026-04-08T17:13:35.012Z</time></trkpt><trkpt lat="43.9214264" lon="12.9073343"><ele>0.0</ele><time>2026-04-08T17:13:38.002Z</time></trkpt><trkpt lat="43.9213767" lon="12.9073974"><ele>0.0</ele><time>2026-04-08T17:13:40.009Z</time></trkpt><trkpt lat="43.921328" lon="12.9074528"><ele>0.0</ele><time>2026-04-08T17:13:42.004Z</time></trkpt><trkpt lat="43.9212698" lon="12.9074886"><ele>0.0</ele><time>2026-04-08T17:13:43.981Z</time></trkpt><trkpt lat="43.9211704" lon="12.9075027"><ele>0.0</ele><time>2026-04-08T17:13:44.983Z</time></trkpt><trkpt lat="43.9210759" lon="12.9074783"><ele>0.0</ele><time>2026-04-08T17:13:45.976Z</time></trkpt><trkpt lat="43.9211331" lon="12.9073268"><ele>0.0</ele><time>2026-04-08T17:13:50.968Z</time></trkpt><trkpt lat="43.9211713" lon="12.907185"><ele>0.0</ele><time>2026-04-08T17:13:51.974Z</time></trkpt><trkpt lat="43.9211969" lon="12.9070967"><ele>0.0</ele><time>2026-04-08T17:13:52.979Z</time></trkpt><trkpt lat="43.9211678" lon="12.9071786"><ele>0.0</ele><time>2026-04-08T17:13:56.962Z</time></trkpt><trkpt lat="43.9211333" lon="12.9072852"><ele>0.0</ele><time>2026-04-08T17:13:57.97Z</time></trkpt><trkpt lat="43.9210853" lon="12.9074108"><ele>0.0</ele><time>2026-04-08T17:13:58.97Z</time></trkpt><trkpt lat="43.9210211" lon="12.9075629"><ele>0.0</ele><time>2026-04-08T17:13:59.98Z</time></trkpt><trkpt lat="43.9209735" lon="12.9077071"><ele>0.0</ele><time>2026-04-08T17:14:00.983Z</time></trkpt><trkpt lat="43.9209492" lon="12.9078027"><ele>-0.16666666666666666</ele><time>2026-04-08T17:14:01.984Z</time></trkpt><trkpt lat="43.9209489" lon="12.9079598"><ele>-0.3333333333333333</ele><time>2026-04-08T17:14:03.984Z</time></trkpt><trkpt lat="43.920905" lon="12.9080458"><ele>-0.5</ele><time>2026-04-08T17:14:05.987Z</time></trkpt><trkpt lat="43.9208415" lon="12.908109"><ele>-0.6666666666666666</ele><time>2026-04-08T17:14:08Z</time></trkpt><trkpt lat="43.9207802" lon="12.9081667"><ele>-0.8333333333333333</ele><time>2026-04-08T17:14:10.002Z</time></trkpt><trkpt lat="43.9207264" lon="12.9082233"><ele>-1.0</ele><time>2026-04-08T17:14:12.007Z</time></trkpt><trkpt lat="43.9206749" lon="12.9082838"><ele>-0.9999999999999999</ele><time>2026-04-08T17:14:13.995Z</time></trkpt><trkpt lat="43.9206152" lon="12.9083601"><ele>-1.0</ele><time>2026-04-08T17:14:16.996Z</time></trkpt><trkpt lat="43.9205531" lon="12.9084378"><ele>-1.0</ele><time>2026-04-08T17:14:19.993Z</time></trkpt><trkpt lat="43.9205037" lon="12.908521"><ele>-1.0</ele><time>2026-04-08T17:14:22.991Z</time></trkpt><trkpt lat="43.9204426" lon="12.9086051"><ele>-0.9999999999999999</ele><time>2026-04-08T17:14:25.991Z</time></trkpt><trkpt lat="43.9203955" lon="12.9086645"><ele>-1.0</ele><time>2026-04-08T17:14:27.998Z</time></trkpt><trkpt lat="43.9203394" lon="12.9087507"><ele>-0.8333333333333333</ele><time>2026-04-08T17:14:30.996Z</time></trkpt><trkpt lat="43.9202845" lon="12.9088516"><ele>-0.6666666666666666</ele><time>2026-04-08T17:14:33.996Z</time></trkpt><trkpt lat="43.9202208" lon="12.9089338"><ele>-0.5</ele><time>2026-04-08T17:14:36.999Z</time></trkpt><trkpt lat="43.920129" lon="12.9090287"><ele>-0.3333333333333333</ele><time>2026-04-08T17:14:40.995Z</time></trkpt><trkpt lat="43.9200597" lon="12.90911"><ele>-0.16666666666666666</ele><time>2026-04-08T17:14:43.999Z</time></trkpt><trkpt lat="43.9200094" lon="12.909164"><ele>0.0</ele><time>2026-04-08T17:14:46.002Z</time></trkpt><trkpt lat="43.919959" lon="12.9092341"><ele>0.0</ele><time>2026-04-08T17:14:48.012Z</time></trkpt><trkpt lat="43.9199129" lon="12.9092979"><ele>0.0</ele><time>2026-04-08T17:14:50.004Z</time></trkpt><trkpt lat="43.9198603" lon="12.9094062"><ele>0.0</ele><time>2026-04-08T17:14:52.995Z</time></trkpt><trkpt lat="43.9198207" lon="12.9094759"><ele>0.0</ele><time>2026-04-08T17:14:54.997Z</time></trkpt><trkpt lat="43.919758" lon="12.9095737"><ele>0.0</ele><time>2026-04-08T17:14:58.002Z</time></trkpt><trkpt lat="43.9196968" lon="12.9096662"><ele>0.0</ele><time>2026-04-08T17:15:01Z</time></trkpt><trkpt lat="43.919652" lon="12.9097336"><ele>0.0</ele><time>2026-04-08T17:15:02.999Z</time></trkpt><trkpt lat="43.919598" lon="12.9097934"><ele>0.0</ele><time>2026-04-08T17:15:05.005Z</time></trkpt><trkpt lat="43.9195324" lon="12.9098838"><ele>0.0</ele><time>2026-04-08T17:15:08.006Z</time></trkpt><trkpt lat="43.9194868" lon="12.9099463"><ele>0.0</ele><time>2026-04-08T17:15:10.008Z</time></trkpt><trkpt lat="43.9194364" lon="12.9100024"><ele>0.0</ele><time>2026-04-08T17:15:12.006Z</time></trkpt><trkpt lat="43.919391" lon="12.9100738"><ele>0.0</ele><time>2026-04-08T17:15:14.021Z</time></trkpt><trkpt lat="43.9193493" lon="12.9101522"><ele>0.0</ele><time>2026-04-08T17:15:16.012Z</time></trkpt><trkpt lat="43.9192893" lon="12.9102443"><ele>0.0</ele><time>2026-04-08T17:15:19.016Z</time></trkpt><trkpt lat="43.9192271" lon="12.9103263"><ele>0.0</ele><time>2026-04-08T17:15:22.009Z</time></trkpt><trkpt lat="43.9191654" lon="12.910418"><ele>0.0</ele><time>2026-04-08T17:15:25.003Z</time></trkpt><trkpt lat="43.9191107" lon="12.9105161"><ele>0.0</ele><time>2026-04-08T17:15:28.008Z</time></trkpt><trkpt lat="43.9190675" lon="12.9105799"><ele>0.0</ele><time>2026-04-08T17:15:30.007Z</time></trkpt><trkpt lat="43.9190109" lon="12.9106338"><ele>0.0</ele><time>2026-04-08T17:15:32.001Z</time></trkpt><trkpt lat="43.9189589" lon="12.9106908"><ele>0.0</ele><time>2026-04-08T17:15:34.011Z</time></trkpt><trkpt lat="43.9189044" lon="12.9107436"><ele>0.0</ele><time>2026-04-08T17:15:36.012Z</time></trkpt><trkpt lat="43.9188469" lon="12.9107911"><ele>0.0</ele><time>2026-04-08T17:15:38.017Z</time></trkpt><trkpt lat="43.9187793" lon="12.9108671"><ele>0.0</ele><time>2026-04-08T17:15:41.014Z</time></trkpt><trkpt lat="43.9187269" lon="12.9109718"><ele>0.0</ele><time>2026-04-08T17:15:44.013Z</time></trkpt><trkpt lat="43.9186802" lon="12.9110464"><ele>0.0</ele><time>2026-04-08T17:15:46.016Z</time></trkpt><trkpt lat="43.9186269" lon="12.9111061"><ele>0.0</ele><time>2026-04-08T17:15:48.022Z</time></trkpt><trkpt lat="43.9185722" lon="12.9111637"><ele>0.0</ele><time>2026-04-08T17:15:50.018Z</time></trkpt><trkpt lat="43.918511" lon="12.9112257"><ele>0.0</ele><time>2026-04-08T17:15:52.02Z</time></trkpt><trkpt lat="43.9184587" lon="12.9112962"><ele>0.0</ele><time>2026-04-08T17:15:54.013Z</time></trkpt><trkpt lat="43.9184006" lon="12.9113968"><ele>0.0</ele><time>2026-04-08T17:15:57.013Z</time></trkpt><trkpt lat="43.9183602" lon="12.9114644"><ele>0.0</ele><time>2026-04-08T17:15:59.011Z</time></trkpt><trkpt lat="43.9183146" lon="12.9115309"><ele>0.0</ele><time>2026-04-08T17:16:01.016Z</time></trkpt><trkpt lat="43.9182719" lon="12.9116075"><ele>0.3333333333333333</ele><time>2026-04-08T17:16:03.017Z</time></trkpt><trkpt lat="43.9182322" lon="12.9116829"><ele>0.6666666666666666</ele><time>2026-04-08T17:16:05.007Z</time></trkpt><trkpt lat="43.918162" lon="12.9117709"><ele>1.0</ele><time>2026-04-08T17:16:08.012Z</time></trkpt><trkpt lat="43.918098" lon="12.9118638"><ele>1.3333333333333333</ele><time>2026-04-08T17:16:11.007Z</time></trkpt><trkpt lat="43.9180513" lon="12.9119338"><ele>1.6666666666666665</ele><time>2026-04-08T17:16:13.009Z</time></trkpt><trkpt lat="43.9180094" lon="12.9120046"><ele>2.0</ele><time>2026-04-08T17:16:15.024Z</time></trkpt><trkpt lat="43.917957" lon="12.9120692"><ele>2.0</ele><time>2026-04-08T17:16:17.011Z</time></trkpt><trkpt lat="43.9179028" lon="12.9121274"><ele>1.9999999999999998</ele><time>2026-04-08T17:16:19.009Z</time></trkpt><trkpt lat="43.917856" lon="12.9122013"><ele>2.0</ele><time>2026-04-08T17:16:21.009Z</time></trkpt><trkpt lat="43.9178102" lon="12.9122676"><ele>2.0</ele><time>2026-04-08T17:16:23.007Z</time></trkpt><trkpt lat="43.9177591" lon="12.9123457"><ele>1.9999999999999998</ele><time>2026-04-08T17:16:24.998Z</time></trkpt><trkpt lat="43.9177096" lon="12.9124121"><ele>2.0</ele><time>2026-04-08T17:16:27.005Z</time></trkpt><trkpt lat="43.9176653" lon="12.9124814"><ele>2.0</ele><time>2026-04-08T17:16:29.003Z</time></trkpt><trkpt lat="43.9176158" lon="12.9125504"><ele>1.5714285714285714</ele><time>2026-04-08T17:16:31.004Z</time></trkpt><trkpt lat="43.9175646" lon="12.9126301"><ele>1.1428571428571428</ele><time>2026-04-08T17:16:33.011Z</time></trkpt><trkpt lat="43.9175071" lon="12.9127318"><ele>0.7142857142857142</ele><time>2026-04-08T17:16:36.007Z</time></trkpt><trkpt lat="43.9174588" lon="12.9127934"><ele>0.2857142857142857</ele><time>2026-04-08T17:16:38.008Z</time></trkpt><trkpt lat="43.9173996" lon="12.9128486"><ele>-0.1428571428571428</ele><time>2026-04-08T17:16:40.007Z</time></trkpt><trkpt lat="43.9173453" lon="12.9129064"><ele>-0.5714285714285714</ele><time>2026-04-08T17:16:42.005Z</time></trkpt><trkpt lat="43.9172924" lon="12.9129618"><ele>-1.0</ele><time>2026-04-08T17:16:44.01Z</time></trkpt><trkpt lat="43.9172468" lon="12.9130321"><ele>-1.0</ele><time>2026-04-08T17:16:46.02Z</time></trkpt><trkpt lat="43.9172067" lon="12.9131055"><ele>-0.9999999999999999</ele><time>2026-04-08T17:16:48.02Z</time></trkpt><trkpt lat="43.9171638" lon="12.9131732"><ele>-1.0</ele><time>2026-04-08T17:16:50.005Z</time></trkpt><trkpt lat="43.917112" lon="12.9132374"><ele>-1.0</ele><time>2026-04-08T17:16:52.005Z</time></trkpt><trkpt lat="43.9170604" lon="12.9132995"><ele>-0.9999999999999999</ele><time>2026-04-08T17:16:54.001Z</time></trkpt><trkpt lat="43.9169977" lon="12.9133934"><ele>-1.0</ele><time>2026-04-08T17:16:57.005Z</time></trkpt><trkpt lat="43.916953" lon="12.913459"><ele>-1.0</ele><time>2026-04-08T17:16:59Z</time></trkpt><trkpt lat="43.916907" lon="12.913537"><ele>-0.8571428571428571</ele><time>2026-04-08T17:17:01.005Z</time></trkpt><trkpt lat="43.9168549" lon="12.9136023"><ele>-0.7142857142857142</ele><time>2026-04-08T17:17:03.01Z</time></trkpt><trkpt lat="43.9168013" lon="12.9136649"><ele>-0.5714285714285714</ele><time>2026-04-08T17:17:05.006Z</time></trkpt><trkpt lat="43.9167522" lon="12.9137363"><ele>-0.42857142857142855</ele><time>2026-04-08T17:17:06.999Z</time></trkpt><trkpt lat="43.9166933" lon="12.913793"><ele>-0.2857142857142857</ele><time>2026-04-08T17:17:09.003Z</time></trkpt><trkpt lat="43.9166407" lon="12.9138594"><ele>-0.14285714285714285</ele><time>2026-04-08T17:17:11.002Z</time></trkpt><trkpt lat="43.9165961" lon="12.9139336"><ele>0.0</ele><time>2026-04-08T17:17:13.006Z</time></trkpt><trkpt lat="43.9165544" lon="12.9140207"><ele>0.14285714285714285</ele><time>2026-04-08T17:17:15.008Z</time></trkpt><trkpt lat="43.9165171" lon="12.914097"><ele>0.2857142857142857</ele><time>2026-04-08T17:17:17.018Z</time></trkpt><trkpt lat="43.9164532" lon="12.9141922"><ele>0.42857142857142855</ele><time>2026-04-08T17:17:19.996Z</time></trkpt><trkpt lat="43.9164003" lon="12.9142536"><ele>0.5714285714285714</ele><time>2026-04-08T17:17:22.001Z</time></trkpt><trkpt lat="43.9163433" lon="12.9143061"><ele>0.7142857142857142</ele><time>2026-04-08T17:17:23.999Z</time></trkpt><trkpt lat="43.9162932" lon="12.9143677"><ele>0.8571428571428571</ele><time>2026-04-08T17:17:25.999Z</time></trkpt><trkpt lat="43.9162271" lon="12.9144257"><ele>1.0</ele><time>2026-04-08T17:17:27.997Z</time></trkpt><trkpt lat="43.9161716" lon="12.9144892"><ele>1.0</ele><time>2026-04-08T17:17:29.999Z</time></trkpt><trkpt lat="43.9161258" lon="12.9145702"><ele>0.9999999999999999</ele><time>2026-04-08T17:17:32.004Z</time></trkpt><trkpt lat="43.9160797" lon="12.9146457"><ele>1.0</ele><time>2026-04-08T17:17:34.008Z</time></trkpt><trkpt lat="43.9160331" lon="12.9147239"><ele>1.0</ele><time>2026-04-08T17:17:36.01Z</time></trkpt><trkpt lat="43.9159804" lon="12.9147984"><ele>0.9999999999999999</ele><time>2026-04-08T17:17:38.008Z</time></trkpt><trkpt lat="43.9159284" lon="12.9148671"><ele>1.0</ele><time>2026-04-08T17:17:40.008Z</time></trkpt><trkpt lat="43.9158748" lon="12.9149331"><ele>1.0</ele><time>2026-04-08T17:17:42.006Z</time></trkpt><trkpt lat="43.9158199" lon="12.915036"><ele>0.9999999999999999</ele><time>2026-04-08T17:17:45.006Z</time></trkpt><trkpt lat="43.9157831" lon="12.9151149"><ele>1.0</ele><time>2026-04-08T17:17:46.999Z</time></trkpt><trkpt lat="43.9157188" lon="12.9152061"><ele>1.0</ele><time>2026-04-08T17:17:50.002Z</time></trkpt><trkpt lat="43.9156681" lon="12.9152679"><ele>1.0</ele><time>2026-04-08T17:17:52.002Z</time></trkpt><trkpt lat="43.915612" lon="12.9153299"><ele>0.9999999999999999</ele><time>2026-04-08T17:17:53.991Z</time></trkpt><trkpt lat="43.9155558" lon="12.9154207"><ele>1.0</ele><time>2026-04-08T17:17:55.998Z</time></trkpt><trkpt lat="43.9155111" lon="12.9155054"><ele>1.0</ele><time>2026-04-08T17:17:58Z</time></trkpt><trkpt lat="43.9154563" lon="12.9155711"><ele>0.9999999999999999</ele><time>2026-04-08T17:18:00.002Z</time></trkpt><trkpt lat="43.9154102" lon="12.9156334"><ele>1.0</ele><time>2026-04-08T17:18:02.002Z</time></trkpt><trkpt lat="43.9153572" lon="12.915726"><ele>1.0</ele><time>2026-04-08T17:18:04.998Z</time></trkpt><trkpt lat="43.9153044" lon="12.9157849"><ele>0.9999999999999999</ele><time>2026-04-08T17:18:07.002Z</time></trkpt><trkpt lat="43.9152485" lon="12.915846"><ele>1.0</ele><time>2026-04-08T17:18:09.01Z</time></trkpt><trkpt lat="43.9151891" lon="12.9159095"><ele>1.0</ele><time>2026-04-08T17:18:11.009Z</time></trkpt><trkpt lat="43.9151355" lon="12.9159778"><ele>2.333333333333333</ele><time>2026-04-08T17:18:12.986Z</time></trkpt><trkpt lat="43.9150555" lon="12.9160216"><ele>3.6666666666666665</ele><time>2026-04-08T17:18:15.968Z</time></trkpt><trkpt lat="43.9149572" lon="12.9160385"><ele>5.0</ele><time>2026-04-08T17:18:18.979Z</time></trkpt><trkpt lat="43.9149134" lon="12.9161553"><ele>6.333333333333333</ele><time>2026-04-08T17:18:21.974Z</time></trkpt><trkpt lat="43.9148819" lon="12.9162582"><ele>7.666666666666667</ele><time>2026-04-08T17:18:22.973Z</time></trkpt><trkpt lat="43.9148493" lon="12.9163584"><ele>9.0</ele><time>2026-04-08T17:18:23.975Z</time></trkpt><trkpt lat="43.9148081" lon="12.9164644"><ele>9.000000000000002</ele><time>2026-04-08T17:18:25.98Z</time></trkpt><trkpt lat="43.9147583" lon="12.9165266"><ele>9.0</ele><time>2026-04-08T17:18:27.98Z</time></trkpt><trkpt lat="43.9147" lon="12.9166024"><ele>9.0</ele><time>2026-04-08T17:18:29.985Z</time></trkpt><trkpt lat="43.9146486" lon="12.9166767"><ele>9.0</ele><time>2026-04-08T17:18:31.988Z</time></trkpt><trkpt lat="43.9145998" lon="12.9167515"><ele>9.0</ele><time>2026-04-08T17:18:33.99Z</time></trkpt><trkpt lat="43.9145518" lon="12.9168243"><ele>9.000000000000002</ele><time>2026-04-08T17:18:35.992Z</time></trkpt><trkpt lat="43.9145062" lon="12.9169093"><ele>9.0</ele><time>2026-04-08T17:18:38.994Z</time></trkpt><trkpt lat="43.9144644" lon="12.9170027"><ele>8.166666666666666</ele><time>2026-04-08T17:18:42.997Z</time></trkpt><trkpt lat="43.9144158" lon="12.9170828"><ele>7.333333333333333</ele><time>2026-04-08T17:18:45.996Z</time></trkpt><trkpt lat="43.9143386" lon="12.9171468"><ele>6.5</ele><time>2026-04-08T17:18:48.99Z</time></trkpt><trkpt lat="43.9142864" lon="12.9172067"><ele>5.666666666666666</ele><time>2026-04-08T17:18:50.994Z</time></trkpt><trkpt lat="43.9142245" lon="12.9172765"><ele>4.833333333333333</ele><time>2026-04-08T17:18:53.989Z</time></trkpt><trkpt lat="43.9141594" lon="12.9173354"><ele>4.0</ele><time>2026-04-08T17:18:56.991Z</time></trkpt><trkpt lat="43.914098" lon="12.9174221"><ele>3.9999999999999996</ele><time>2026-04-08T17:18:59.994Z</time></trkpt><trkpt lat="43.9140517" lon="12.9175071"><ele>4.0</ele><time>2026-04-08T17:19:02.997Z</time></trkpt><trkpt lat="43.9139928" lon="12.9175969"><ele>4.0</ele><time>2026-04-08T17:19:05.994Z</time></trkpt><trkpt lat="43.9139351" lon="12.9176812"><ele>4.0</ele><time>2026-04-08T17:19:09.002Z</time></trkpt><trkpt lat="43.9138806" lon="12.9177731"><ele>3.9999999999999996</ele><time>2026-04-08T17:19:12.003Z</time></trkpt><trkpt lat="43.9138393" lon="12.9178778"><ele>4.0</ele><time>2026-04-08T17:19:15.006Z</time></trkpt><trkpt lat="43.9138248" lon="12.9179658"><ele>3.833333333333333</ele><time>2026-04-08T17:19:17.006Z</time></trkpt><trkpt lat="43.9138318" lon="12.918077"><ele>3.6666666666666665</ele><time>2026-04-08T17:19:19.992Z</time></trkpt><trkpt lat="43.913824" lon="12.9181945"><ele>3.5</ele><time>2026-04-08T17:19:22.993Z</time></trkpt><trkpt lat="43.9138195" lon="12.9183066"><ele>3.333333333333333</ele><time>2026-04-08T17:19:26.001Z</time></trkpt><trkpt lat="43.9138294" lon="12.9184222"><ele>3.1666666666666665</ele><time>2026-04-08T17:19:29.998Z</time></trkpt><trkpt lat="43.913828" lon="12.9185241"><ele>3.0</ele><time>2026-04-08T17:19:33.001Z</time></trkpt><trkpt lat="43.9138295" lon="12.9186324"><ele>2.571428571428571</ele><time>2026-04-08T17:19:36.002Z</time></trkpt><trkpt lat="43.9138408" lon="12.9187311"><ele>2.142857142857143</ele><time>2026-04-08T17:19:39.009Z</time></trkpt><trkpt lat="43.9138517" lon="12.9188394"><ele>1.7142857142857142</ele><time>2026-04-08T17:19:42.006Z</time></trkpt><trkpt lat="43.9138668" lon="12.9189449"><ele>1.2857142857142856</ele><time>2026-04-08T17:19:45.006Z</time></trkpt><trkpt lat="43.913883" lon="12.919032"><ele>0.8571428571428571</ele><time>2026-04-08T17:19:47.01Z</time></trkpt><trkpt lat="43.9139202" lon="12.919122"><ele>0.42857142857142855</ele><time>2026-04-08T17:19:50.006Z</time></trkpt><trkpt lat="43.9139541" lon="12.9192054"><ele>0.0</ele><time>2026-04-08T17:19:53Z</time></trkpt><trkpt lat="43.9139391" lon="12.9193177"><ele>0.0</ele><time>2026-04-08T17:19:56.008Z</time></trkpt><trkpt lat="43.9138859" lon="12.9193786"><ele>0.0</ele><time>2026-04-08T17:19:58.007Z</time></trkpt><trkpt lat="43.91382" lon="12.9194507"><ele>0.0</ele><time>2026-04-08T17:20:00.996Z</time></trkpt><trkpt lat="43.913797" lon="12.9195337"><ele>0.0</ele><time>2026-04-08T17:20:02.986Z</time></trkpt><trkpt lat="43.9137331" lon="12.919631"><ele>0.0</ele><time>2026-04-08T17:20:05.994Z</time></trkpt><trkpt lat="43.9136693" lon="12.9196685"><ele>0.0</ele><time>2026-04-08T17:20:07.999Z</time></trkpt><trkpt lat="43.9135804" lon="12.9196973"><ele>0.0</ele><time>2026-04-08T17:20:10.997Z</time></trkpt><trkpt lat="43.9135158" lon="12.9197013"><ele>0.0</ele><time>2026-04-08T17:20:13.002Z</time></trkpt><trkpt lat="43.9134459" lon="12.9197162"><ele>0.0</ele><time>2026-04-08T17:20:15.008Z</time></trkpt><trkpt lat="43.9133829" lon="12.9197784"><ele>0.0</ele><time>2026-04-08T17:20:18.019Z</time></trkpt><trkpt lat="43.9133165" lon="12.9198465"><ele>0.0</ele><time>2026-04-08T17:20:21Z</time></trkpt><trkpt lat="43.913262" lon="12.9199156"><ele>0.0</ele><time>2026-04-08T17:20:24.001Z</time></trkpt><trkpt lat="43.9131974" lon="12.9199919"><ele>0.0</ele><time>2026-04-08T17:20:27.005Z</time></trkpt><trkpt lat="43.9131251" lon="12.920078"><ele>0.0</ele><time>2026-04-08T17:20:30.012Z</time></trkpt><trkpt lat="43.9130649" lon="12.9201557"><ele>0.0</ele><time>2026-04-08T17:20:32.99Z</time></trkpt><trkpt lat="43.9130318" lon="12.9202382"><ele>0.0</ele><time>2026-04-08T17:20:35.99Z</time></trkpt><trkpt lat="43.9129958" lon="12.9203159"><ele>0.0</ele><time>2026-04-08T17:20:39.011Z</time></trkpt><trkpt lat="43.9129409" lon="12.9203862"><ele>0.0</ele><time>2026-04-08T17:20:42.004Z</time></trkpt><trkpt lat="43.9128964" lon="12.9204613"><ele>0.0</ele><time>2026-04-08T17:20:45.001Z</time></trkpt><trkpt lat="43.9128483" lon="12.9205464"><ele>0.0</ele><time>2026-04-08T17:20:48.023Z</time></trkpt><trkpt lat="43.9127982" lon="12.9206172"><ele>0.0</ele><time>2026-04-08T17:20:51.006Z</time></trkpt><trkpt lat="43.912744" lon="12.920694"><ele>0.0</ele><time>2026-04-08T17:20:54.005Z</time></trkpt><trkpt lat="43.9126874" lon="12.9207665"><ele>0.0</ele><time>2026-04-08T17:20:57.004Z</time></trkpt><trkpt lat="43.9126216" lon="12.920854"><ele>0.0</ele><time>2026-04-08T17:21:00.008Z</time></trkpt><trkpt lat="43.9125653" lon="12.9209423"><ele>0.0</ele><time>2026-04-08T17:21:03.001Z</time></trkpt><trkpt lat="43.9125467" lon="12.921044"><ele>0.0</ele><time>2026-04-08T17:21:05.983Z</time></trkpt><trkpt lat="43.9124934" lon="12.9211125"><ele>0.0</ele><time>2026-04-08T17:21:08.996Z</time></trkpt><trkpt lat="43.9124275" lon="12.9211814"><ele>0.0</ele><time>2026-04-08T17:21:11.993Z</time></trkpt><trkpt lat="43.9123613" lon="12.9212605"><ele>0.0</ele><time>2026-04-08T17:21:14.993Z</time></trkpt><trkpt lat="43.9122868" lon="12.9213349"><ele>0.0</ele><time>2026-04-08T17:21:18.011Z</time></trkpt><trkpt lat="43.9122313" lon="12.9214095"><ele>0.0</ele><time>2026-04-08T17:21:20.999Z</time></trkpt><trkpt lat="43.9121636" lon="12.921487"><ele>0.0</ele><time>2026-04-08T17:21:24.009Z</time></trkpt><trkpt lat="43.9120877" lon="12.9215297"><ele>0.0</ele><time>2026-04-08T17:21:26.994Z</time></trkpt><trkpt lat="43.9120077" lon="12.9215063"><ele>0.0</ele><time>2026-04-08T17:21:30.004Z</time></trkpt><trkpt lat="43.911963" lon="12.9214336"><ele>0.0</ele><time>2026-04-08T17:21:31.998Z</time></trkpt><trkpt lat="43.9119126" lon="12.9213396"><ele>0.0</ele><time>2026-04-08T17:21:34.998Z</time></trkpt><trkpt lat="43.911886" lon="12.9212559"><ele>0.0</ele><time>2026-04-08T17:21:37.001Z</time></trkpt><trkpt lat="43.9118231" lon="12.921164"><ele>0.0</ele><time>2026-04-08T17:21:39.997Z</time></trkpt><trkpt lat="43.9117649" lon="12.9210778"><ele>0.0</ele><time>2026-04-08T17:21:42.999Z</time></trkpt><trkpt lat="43.9117407" lon="12.9209884"><ele>0.0</ele><time>2026-04-08T17:21:45Z</time></trkpt><trkpt lat="43.9117158" lon="12.9209011"><ele>0.0</ele><time>2026-04-08T17:21:47.001Z</time></trkpt><trkpt lat="43.9117414" lon="12.9207845"><ele>0.0</ele><time>2026-04-08T17:21:50Z</time></trkpt><trkpt lat="43.9117752" lon="12.9206435"><ele>0.3333333333333333</ele><time>2026-04-08T17:21:52.988Z</time></trkpt><trkpt lat="43.9118041" lon="12.9205545"><ele>0.6666666666666666</ele><time>2026-04-08T17:21:55.009Z</time></trkpt><trkpt lat="43.9118602" lon="12.9204687"><ele>1.0</ele><time>2026-04-08T17:21:57.984Z</time></trkpt><trkpt lat="43.9119344" lon="12.9204076"><ele>1.3333333333333333</ele><time>2026-04-08T17:22:00.992Z</time></trkpt><trkpt lat="43.9119949" lon="12.9203367"><ele>1.6666666666666665</ele><time>2026-04-08T17:22:03.986Z</time></trkpt><trkpt lat="43.9120498" lon="12.9202552"><ele>2.0</ele><time>2026-04-08T17:22:06.991Z</time></trkpt><trkpt lat="43.9121245" lon="12.9202024"><ele>2.0</ele><time>2026-04-08T17:22:09.996Z</time></trkpt><trkpt lat="43.9121954" lon="12.9201808"><ele>2.0</ele><time>2026-04-08T17:22:12.991Z</time></trkpt><trkpt lat="43.9122466" lon="12.9201274"><ele>2.0</ele><time>2026-04-08T17:22:16.002Z</time></trkpt></trkseg></trk></gpx>